<?xml version="1.0" encoding="UTF-8" standalone="no" ?>
<gpx xmlns="http://www.topografix.com/GPX/1/1" xmlns:xsi="http://www.w3.org/2001/XMLSchema-instance" xsi:schemaLocation="http://www.topografix.com/GPX/1/1 http://www.topografix.com/GPX/1/1/gpx.xsd" version="1.1" creator="VisuGPX - https://www.visugpx.com">
  <metadata>
    <name>2023-09-15 J11</name>
    <desc><![CDATA[Stevenson J11 Bedoues-Cassagnas 24.7km]]></desc>
  </metadata>
  <wpt lat="44.34607" lon="3.6041">
    <ele>571</ele>
    <name><![CDATA[0001432]]></name>
    <type><![CDATA[Point de départ]]></type>
  </wpt>
  <wpt lat="44.30448" lon="3.65586">
    <ele>691.9</ele>
    <name><![CDATA[0001433]]></name>
    <desc><![CDATA[<p><br /><h3>Nom: Segment: 1</h3><br />Heure de départ: 09/15/2023 08:49<br/>Heure d'arrivée: 09/15/2023 12:57<br/>Distance: 12,6km (04:08)<br/>Temps déplacement: 02:59<br/>Vitesse moyenne: 3,05 km/h<br/>Vitesse moyenne mouv.: 4,19 km/h<br/>Vitesse Max.: 8,48 km/h<br/>Altitude minimale: 541 m<br/>Altitude maximale: 725 m<br/>Vitesse de montée: 175,5 m/h<br/>Vitesse de descente: -221 m/h<br/>Gain d'altitude: 420 m<br/>Perte d'altitude: -295 m<br/>Temps de montée: 02:23<br/>Temps de descente: 01:20<br/></p>]]></desc>
    <type><![CDATA[Point d'arrivée]]></type>
  </wpt>
  <wpt lat="44.30453" lon="3.65603">
    <ele>692.1</ele>
    <name><![CDATA[0001434]]></name>
    <type><![CDATA[Point de départ]]></type>
  </wpt>
  <wpt lat="44.2705" lon="3.74307">
    <ele>831.9</ele>
    <name><![CDATA[0001435]]></name>
    <desc><![CDATA[<p><br /><h3>Nom: Segment: 2</h3><br />Heure de départ: 09/15/2023 13:44<br/>Heure d'arrivée: 09/15/2023 17:57<br/>Distance: 11,7km (04:13)<br/>Temps déplacement: 02:39<br/>Vitesse moyenne: 2,77 km/h<br/>Vitesse moyenne mouv.: 4,38 km/h<br/>Vitesse Max.: 6,93 km/h<br/>Altitude minimale: 610 m<br/>Altitude maximale: 891 m<br/>Vitesse de montée: 202,3 m/h<br/>Vitesse de descente: -315 m/h<br/>Gain d'altitude: 409 m<br/>Perte d'altitude: -277 m<br/>Temps de montée: 02:01<br/>Temps de descente: 00:52<br/></p>]]></desc>
    <type><![CDATA[Point d'arrivée]]></type>
  </wpt>
  <trk>
    <name><![CDATA[2023-09-15 08:49]]></name>
    <desc><![CDATA[<p>Heure de départ: 09/15/2023 08:49<br/>Heure d'arrivée: 09/15/2023 17:57<br/>Distance: 24,3 km (08:21)<br/>Temps déplacement: 05:39<br/>Vitesse moyenne: 2,91 km/h<br/>Vitesse moyenne mouv.: 4,3 km/h<br/>Vitesse Max.: 8,48 km/h<br/>Altitude minimale: 541 m<br/>Altitude maximale: 891 m<br/>Vitesse de montée: 143,6 m/h<br/>Vitesse de descente: -186 m/h<br/>Gain d'altitude: 787 m<br/>Perte d'altitude: -486 m<br/>Temps de montée: 05:29<br/>Temps de descente: 02:36<br/></p><hr align="center" width="480" style="height: 2px; width: 517px"/>]]></desc>
    <extensions>
      <line xmlns="http://www.topografix.com/GPX/gpx_style/0/2">
        <color>0000FF</color>
        <width>4</width>
      </line>
    </extensions>
    <trkseg>
      <trkpt lat="44.34575" lon="3.60899">
        <ele>562.5</ele>
        <time>2023-09-15T06:49:22Z</time>
      </trkpt>
      <trkpt lat="44.34641" lon="3.60712">
        <ele>561.6</ele>
        <time>2023-09-15T06:49:42Z</time>
      </trkpt>
      <trkpt lat="44.34627" lon="3.60483">
        <ele>565.4</ele>
      </trkpt>
      <trkpt lat="44.34582" lon="3.60364">
        <ele>575.33</ele>
        <time>2023-09-15T06:50:02Z</time>
      </trkpt>
      <trkpt lat="44.34568" lon="3.60345">
        <ele>573.33</ele>
        <time>2023-09-15T06:50:22Z</time>
      </trkpt>
      <trkpt lat="44.34559" lon="3.60319">
        <ele>569.33</ele>
        <time>2023-09-15T06:50:46Z</time>
      </trkpt>
      <trkpt lat="44.34549" lon="3.60297">
        <ele>565.33</ele>
        <time>2023-09-15T06:51:18Z</time>
      </trkpt>
      <trkpt lat="44.34538" lon="3.60267">
        <ele>563.33</ele>
        <time>2023-09-15T06:51:38Z</time>
      </trkpt>
      <trkpt lat="44.3453" lon="3.60237">
        <ele>561.33</ele>
        <time>2023-09-15T06:51:58Z</time>
      </trkpt>
      <trkpt lat="44.34523" lon="3.60212">
        <ele>560.33</ele>
        <time>2023-09-15T06:52:14Z</time>
      </trkpt>
      <trkpt lat="44.34518" lon="3.60186">
        <ele>557.33</ele>
        <time>2023-09-15T06:52:30Z</time>
      </trkpt>
      <trkpt lat="44.34512" lon="3.60161">
        <ele>558.33</ele>
        <time>2023-09-15T06:52:46Z</time>
      </trkpt>
      <trkpt lat="44.34506" lon="3.60137">
        <ele>558.33</ele>
        <time>2023-09-15T06:53:02Z</time>
      </trkpt>
      <trkpt lat="44.34501" lon="3.60112">
        <ele>557.33</ele>
        <time>2023-09-15T06:53:18Z</time>
      </trkpt>
      <trkpt lat="44.34495" lon="3.60086">
        <ele>558.33</ele>
        <time>2023-09-15T06:53:34Z</time>
      </trkpt>
      <trkpt lat="44.34489" lon="3.60059">
        <ele>556.33</ele>
        <time>2023-09-15T06:53:54Z</time>
      </trkpt>
      <trkpt lat="44.34482" lon="3.60033">
        <ele>556.33</ele>
        <time>2023-09-15T06:54:10Z</time>
      </trkpt>
      <trkpt lat="44.34479" lon="3.60008">
        <ele>557.33</ele>
        <time>2023-09-15T06:54:26Z</time>
      </trkpt>
      <trkpt lat="44.34473" lon="3.59978">
        <ele>556.33</ele>
        <time>2023-09-15T06:54:46Z</time>
      </trkpt>
      <trkpt lat="44.34469" lon="3.5995">
        <ele>555.33</ele>
        <time>2023-09-15T06:55:02Z</time>
      </trkpt>
      <trkpt lat="44.34467" lon="3.59923">
        <ele>556.33</ele>
        <time>2023-09-15T06:55:18Z</time>
      </trkpt>
      <trkpt lat="44.34471" lon="3.59895">
        <ele>555.33</ele>
        <time>2023-09-15T06:55:34Z</time>
      </trkpt>
      <trkpt lat="44.34474" lon="3.5987">
        <ele>556.33</ele>
        <time>2023-09-15T06:55:50Z</time>
      </trkpt>
      <trkpt lat="44.34479" lon="3.59843">
        <ele>556.33</ele>
        <time>2023-09-15T06:56:06Z</time>
      </trkpt>
      <trkpt lat="44.34482" lon="3.59815">
        <ele>555.33</ele>
        <time>2023-09-15T06:56:22Z</time>
      </trkpt>
      <trkpt lat="44.34483" lon="3.59788">
        <ele>556.33</ele>
        <time>2023-09-15T06:56:38Z</time>
      </trkpt>
      <trkpt lat="44.34482" lon="3.59763">
        <ele>555.33</ele>
        <time>2023-09-15T06:56:54Z</time>
      </trkpt>
      <trkpt lat="44.3448" lon="3.59736">
        <ele>554.33</ele>
        <time>2023-09-15T06:57:10Z</time>
      </trkpt>
      <trkpt lat="44.34478" lon="3.59708">
        <ele>554.33</ele>
        <time>2023-09-15T06:57:26Z</time>
      </trkpt>
      <trkpt lat="44.34473" lon="3.5968">
        <ele>554.33</ele>
        <time>2023-09-15T06:57:42Z</time>
      </trkpt>
      <trkpt lat="44.34468" lon="3.59651">
        <ele>553.33</ele>
        <time>2023-09-15T06:58:02Z</time>
      </trkpt>
      <trkpt lat="44.34467" lon="3.5962">
        <ele>553.33</ele>
        <time>2023-09-15T06:58:22Z</time>
      </trkpt>
      <trkpt lat="44.34469" lon="3.59588">
        <ele>554.33</ele>
        <time>2023-09-15T06:58:46Z</time>
      </trkpt>
      <trkpt lat="44.34475" lon="3.59563">
        <ele>553.33</ele>
        <time>2023-09-15T06:59:02Z</time>
      </trkpt>
      <trkpt lat="44.3448" lon="3.59537">
        <ele>554.33</ele>
        <time>2023-09-15T06:59:18Z</time>
      </trkpt>
      <trkpt lat="44.34484" lon="3.5951">
        <ele>554.33</ele>
        <time>2023-09-15T06:59:34Z</time>
      </trkpt>
      <trkpt lat="44.3449" lon="3.59484">
        <ele>553.33</ele>
        <time>2023-09-15T06:59:50Z</time>
      </trkpt>
      <trkpt lat="44.34497" lon="3.59458">
        <ele>554.33</ele>
        <time>2023-09-15T07:00:06Z</time>
      </trkpt>
      <trkpt lat="44.34504" lon="3.59433">
        <ele>552.33</ele>
        <time>2023-09-15T07:00:22Z</time>
      </trkpt>
      <trkpt lat="44.34509" lon="3.59408">
        <ele>553.33</ele>
        <time>2023-09-15T07:00:38Z</time>
      </trkpt>
      <trkpt lat="44.34515" lon="3.59382">
        <ele>554.33</ele>
        <time>2023-09-15T07:00:54Z</time>
      </trkpt>
      <trkpt lat="44.34522" lon="3.59358">
        <ele>554.33</ele>
        <time>2023-09-15T07:01:10Z</time>
      </trkpt>
      <trkpt lat="44.34529" lon="3.59334">
        <ele>554.33</ele>
        <time>2023-09-15T07:01:26Z</time>
      </trkpt>
      <trkpt lat="44.34535" lon="3.59308">
        <ele>552.33</ele>
        <time>2023-09-15T07:01:42Z</time>
      </trkpt>
      <trkpt lat="44.34543" lon="3.59283">
        <ele>552.33</ele>
        <time>2023-09-15T07:01:58Z</time>
      </trkpt>
      <trkpt lat="44.34552" lon="3.59259">
        <ele>552.33</ele>
        <time>2023-09-15T07:02:14Z</time>
      </trkpt>
      <trkpt lat="44.34561" lon="3.59236">
        <ele>552.33</ele>
        <time>2023-09-15T07:02:30Z</time>
      </trkpt>
      <trkpt lat="44.34569" lon="3.59212">
        <ele>553.33</ele>
        <time>2023-09-15T07:02:46Z</time>
      </trkpt>
      <trkpt lat="44.34582" lon="3.59191">
        <ele>555.33</ele>
        <time>2023-09-15T07:03:06Z</time>
      </trkpt>
      <trkpt lat="44.34598" lon="3.59176">
        <ele>558.33</ele>
        <time>2023-09-15T07:03:22Z</time>
      </trkpt>
      <trkpt lat="44.34615" lon="3.59159">
        <ele>559.33</ele>
        <time>2023-09-15T07:03:42Z</time>
      </trkpt>
      <trkpt lat="44.34632" lon="3.59145">
        <ele>560.33</ele>
        <time>2023-09-15T07:04:02Z</time>
      </trkpt>
      <trkpt lat="44.3465" lon="3.59146">
        <ele>563.33</ele>
        <time>2023-09-15T07:04:22Z</time>
      </trkpt>
      <trkpt lat="44.3465" lon="3.5912">
        <ele>562.33</ele>
        <time>2023-09-15T07:04:42Z</time>
      </trkpt>
      <trkpt lat="44.34648" lon="3.59093">
        <ele>567.33</ele>
        <time>2023-09-15T07:05:06Z</time>
      </trkpt>
      <trkpt lat="44.3464" lon="3.59069">
        <ele>570.33</ele>
        <time>2023-09-15T07:05:26Z</time>
      </trkpt>
      <trkpt lat="44.34634" lon="3.59043">
        <ele>575.33</ele>
        <time>2023-09-15T07:05:50Z</time>
      </trkpt>
      <trkpt lat="44.34622" lon="3.5902">
        <ele>576.33</ele>
        <time>2023-09-15T07:06:10Z</time>
      </trkpt>
      <trkpt lat="44.34609" lon="3.58995">
        <ele>578.33</ele>
        <time>2023-09-15T07:06:34Z</time>
      </trkpt>
      <trkpt lat="44.34603" lon="3.58963">
        <ele>578.33</ele>
        <time>2023-09-15T07:07:02Z</time>
      </trkpt>
      <trkpt lat="44.34603" lon="3.58936">
        <ele>582.33</ele>
        <time>2023-09-15T07:07:26Z</time>
      </trkpt>
      <trkpt lat="44.34582" lon="3.58929">
        <ele>586.33</ele>
        <time>2023-09-15T07:07:46Z</time>
      </trkpt>
      <trkpt lat="44.34562" lon="3.58927">
        <ele>583.33</ele>
        <time>2023-09-15T07:08:06Z</time>
      </trkpt>
      <trkpt lat="44.34544" lon="3.58917">
        <ele>584.33</ele>
        <time>2023-09-15T07:08:26Z</time>
      </trkpt>
      <trkpt lat="44.34524" lon="3.58917">
        <ele>586.33</ele>
        <time>2023-09-15T07:08:42Z</time>
      </trkpt>
      <trkpt lat="44.34506" lon="3.58911">
        <ele>586.33</ele>
        <time>2023-09-15T07:09:02Z</time>
      </trkpt>
      <trkpt lat="44.34486" lon="3.58904">
        <ele>586.33</ele>
        <time>2023-09-15T07:09:22Z</time>
      </trkpt>
      <trkpt lat="44.34465" lon="3.58896">
        <ele>589.33</ele>
        <time>2023-09-15T07:09:46Z</time>
      </trkpt>
      <trkpt lat="44.34443" lon="3.58891">
        <ele>590.33</ele>
        <time>2023-09-15T07:10:06Z</time>
      </trkpt>
      <trkpt lat="44.34421" lon="3.58888">
        <ele>589.33</ele>
        <time>2023-09-15T07:10:26Z</time>
      </trkpt>
      <trkpt lat="44.34402" lon="3.58883">
        <ele>586.33</ele>
        <time>2023-09-15T07:10:46Z</time>
      </trkpt>
      <trkpt lat="44.34383" lon="3.58868">
        <ele>591.33</ele>
        <time>2023-09-15T07:11:14Z</time>
      </trkpt>
      <trkpt lat="44.34364" lon="3.58865">
        <ele>592.33</ele>
        <time>2023-09-15T07:11:30Z</time>
      </trkpt>
      <trkpt lat="44.34344" lon="3.58865">
        <ele>592.33</ele>
        <time>2023-09-15T07:11:50Z</time>
      </trkpt>
      <trkpt lat="44.34324" lon="3.58877">
        <ele>587.33</ele>
        <time>2023-09-15T07:12:06Z</time>
      </trkpt>
      <trkpt lat="44.34305" lon="3.58887">
        <ele>585.33</ele>
        <time>2023-09-15T07:12:22Z</time>
      </trkpt>
      <trkpt lat="44.34282" lon="3.58889">
        <ele>583.33</ele>
        <time>2023-09-15T07:12:42Z</time>
      </trkpt>
      <trkpt lat="44.34265" lon="3.589">
        <ele>583.33</ele>
        <time>2023-09-15T07:12:58Z</time>
      </trkpt>
      <trkpt lat="44.34245" lon="3.58903">
        <ele>582.33</ele>
        <time>2023-09-15T07:13:18Z</time>
      </trkpt>
      <trkpt lat="44.34223" lon="3.58906">
        <ele>585.33</ele>
        <time>2023-09-15T07:13:38Z</time>
      </trkpt>
      <trkpt lat="44.34206" lon="3.58916">
        <ele>585.33</ele>
        <time>2023-09-15T07:13:52Z</time>
      </trkpt>
      <trkpt lat="44.34189" lon="3.5893">
        <ele>585.33</ele>
        <time>2023-09-15T07:14:08Z</time>
      </trkpt>
      <trkpt lat="44.34169" lon="3.58939">
        <ele>584.33</ele>
        <time>2023-09-15T07:14:28Z</time>
      </trkpt>
      <trkpt lat="44.34152" lon="3.5895">
        <ele>585.33</ele>
        <time>2023-09-15T07:14:52Z</time>
      </trkpt>
      <trkpt lat="44.34135" lon="3.58963">
        <ele>586.33</ele>
        <time>2023-09-15T07:15:16Z</time>
      </trkpt>
      <trkpt lat="44.34115" lon="3.58976">
        <ele>589.33</ele>
        <time>2023-09-15T07:15:36Z</time>
      </trkpt>
      <trkpt lat="44.34096" lon="3.58983">
        <ele>589.33</ele>
        <time>2023-09-15T07:15:56Z</time>
      </trkpt>
      <trkpt lat="44.34077" lon="3.58982">
        <ele>583.33</ele>
        <time>2023-09-15T07:16:12Z</time>
      </trkpt>
      <trkpt lat="44.34057" lon="3.58981">
        <ele>579.33</ele>
        <time>2023-09-15T07:16:28Z</time>
      </trkpt>
      <trkpt lat="44.3404" lon="3.58971">
        <ele>576.33</ele>
        <time>2023-09-15T07:16:48Z</time>
      </trkpt>
      <trkpt lat="44.34022" lon="3.58958">
        <ele>572.33</ele>
        <time>2023-09-15T07:17:08Z</time>
      </trkpt>
      <trkpt lat="44.34006" lon="3.58939">
        <ele>571.33</ele>
        <time>2023-09-15T07:17:28Z</time>
      </trkpt>
      <trkpt lat="44.33993" lon="3.58919">
        <ele>568.33</ele>
        <time>2023-09-15T07:17:44Z</time>
      </trkpt>
      <trkpt lat="44.33977" lon="3.58899">
        <ele>565.33</ele>
        <time>2023-09-15T07:18:04Z</time>
      </trkpt>
      <trkpt lat="44.33964" lon="3.5888">
        <ele>561.33</ele>
        <time>2023-09-15T07:18:20Z</time>
      </trkpt>
      <trkpt lat="44.3395" lon="3.58862">
        <ele>559.33</ele>
        <time>2023-09-15T07:18:36Z</time>
      </trkpt>
      <trkpt lat="44.33937" lon="3.58843">
        <ele>559.33</ele>
        <time>2023-09-15T07:18:52Z</time>
      </trkpt>
      <trkpt lat="44.3392" lon="3.58822">
        <ele>558.33</ele>
        <time>2023-09-15T07:19:12Z</time>
      </trkpt>
      <trkpt lat="44.33903" lon="3.58807">
        <ele>556.33</ele>
        <time>2023-09-15T07:19:28Z</time>
      </trkpt>
      <trkpt lat="44.33884" lon="3.58795">
        <ele>556.33</ele>
        <time>2023-09-15T07:19:44Z</time>
      </trkpt>
      <trkpt lat="44.33868" lon="3.58782">
        <ele>553.33</ele>
        <time>2023-09-15T07:20:00Z</time>
      </trkpt>
      <trkpt lat="44.33852" lon="3.58763">
        <ele>553.33</ele>
        <time>2023-09-15T07:20:16Z</time>
      </trkpt>
      <trkpt lat="44.33831" lon="3.58751">
        <ele>552.33</ele>
        <time>2023-09-15T07:20:36Z</time>
      </trkpt>
      <trkpt lat="44.33814" lon="3.58739">
        <ele>550.33</ele>
        <time>2023-09-15T07:20:52Z</time>
      </trkpt>
      <trkpt lat="44.33798" lon="3.58724">
        <ele>549.33</ele>
        <time>2023-09-15T07:21:08Z</time>
      </trkpt>
      <trkpt lat="44.33782" lon="3.58713">
        <ele>549.33</ele>
        <time>2023-09-15T07:21:20Z</time>
      </trkpt>
      <trkpt lat="44.33762" lon="3.58718">
        <ele>550.33</ele>
        <time>2023-09-15T07:21:36Z</time>
      </trkpt>
      <trkpt lat="44.33742" lon="3.58725">
        <ele>551.33</ele>
        <time>2023-09-15T07:21:52Z</time>
      </trkpt>
      <trkpt lat="44.33724" lon="3.58731">
        <ele>549.33</ele>
        <time>2023-09-15T07:22:08Z</time>
      </trkpt>
      <trkpt lat="44.33706" lon="3.58737">
        <ele>546.33</ele>
        <time>2023-09-15T07:22:24Z</time>
      </trkpt>
      <trkpt lat="44.33686" lon="3.58743">
        <ele>544.33</ele>
        <time>2023-09-15T07:22:40Z</time>
      </trkpt>
      <trkpt lat="44.33667" lon="3.58746">
        <ele>543.33</ele>
        <time>2023-09-15T07:23:00Z</time>
      </trkpt>
      <trkpt lat="44.33647" lon="3.58736">
        <ele>544.33</ele>
        <time>2023-09-15T07:23:20Z</time>
      </trkpt>
      <trkpt lat="44.33631" lon="3.58721">
        <ele>544.33</ele>
        <time>2023-09-15T07:23:36Z</time>
      </trkpt>
      <trkpt lat="44.33614" lon="3.58708">
        <ele>543.33</ele>
        <time>2023-09-15T07:23:52Z</time>
      </trkpt>
      <trkpt lat="44.33602" lon="3.58686">
        <ele>544.33</ele>
        <time>2023-09-15T07:24:08Z</time>
      </trkpt>
      <trkpt lat="44.33603" lon="3.58655">
        <ele>546.33</ele>
        <time>2023-09-15T07:24:29Z</time>
      </trkpt>
      <trkpt lat="44.33614" lon="3.58633">
        <ele>545.33</ele>
        <time>2023-09-15T07:24:49Z</time>
      </trkpt>
      <trkpt lat="44.33613" lon="3.58607">
        <ele>548.33</ele>
        <time>2023-09-15T07:25:29Z</time>
      </trkpt>
      <trkpt lat="44.33597" lon="3.58587">
        <ele>546.33</ele>
        <time>2023-09-15T07:25:49Z</time>
      </trkpt>
      <trkpt lat="44.33579" lon="3.58589">
        <ele>543.33</ele>
        <time>2023-09-15T07:26:17Z</time>
      </trkpt>
      <trkpt lat="44.33561" lon="3.58597">
        <ele>543.33</ele>
        <time>2023-09-15T07:26:37Z</time>
      </trkpt>
      <trkpt lat="44.33544" lon="3.58589">
        <ele>546.33</ele>
        <time>2023-09-15T07:27:05Z</time>
      </trkpt>
      <trkpt lat="44.33525" lon="3.58584">
        <ele>549.33</ele>
        <time>2023-09-15T07:27:25Z</time>
      </trkpt>
      <trkpt lat="44.3351" lon="3.58603">
        <ele>549.33</ele>
        <time>2023-09-15T07:28:17Z</time>
      </trkpt>
      <trkpt lat="44.33491" lon="3.58605">
        <ele>550.33</ele>
        <time>2023-09-15T07:28:33Z</time>
      </trkpt>
      <trkpt lat="44.33472" lon="3.58608">
        <ele>548.33</ele>
        <time>2023-09-15T07:28:49Z</time>
      </trkpt>
      <trkpt lat="44.33452" lon="3.58617">
        <ele>547.33</ele>
        <time>2023-09-15T07:29:09Z</time>
      </trkpt>
      <trkpt lat="44.33435" lon="3.58628">
        <ele>547.33</ele>
        <time>2023-09-15T07:29:33Z</time>
      </trkpt>
      <trkpt lat="44.33415" lon="3.58636">
        <ele>549.33</ele>
        <time>2023-09-15T07:29:49Z</time>
      </trkpt>
      <trkpt lat="44.33397" lon="3.58648">
        <ele>547.33</ele>
        <time>2023-09-15T07:30:09Z</time>
      </trkpt>
      <trkpt lat="44.33377" lon="3.58663">
        <ele>546.33</ele>
        <time>2023-09-15T07:30:29Z</time>
      </trkpt>
      <trkpt lat="44.3336" lon="3.5868">
        <ele>548.33</ele>
        <time>2023-09-15T07:30:45Z</time>
      </trkpt>
      <trkpt lat="44.33347" lon="3.58699">
        <ele>548.33</ele>
        <time>2023-09-15T07:31:02Z</time>
      </trkpt>
      <trkpt lat="44.33332" lon="3.58722">
        <ele>548.33</ele>
        <time>2023-09-15T07:31:22Z</time>
      </trkpt>
      <trkpt lat="44.33319" lon="3.58744">
        <ele>548.33</ele>
        <time>2023-09-15T07:31:38Z</time>
      </trkpt>
      <trkpt lat="44.33307" lon="3.58765">
        <ele>546.33</ele>
        <time>2023-09-15T07:31:54Z</time>
      </trkpt>
      <trkpt lat="44.33295" lon="3.5879">
        <ele>546.33</ele>
        <time>2023-09-15T07:32:46Z</time>
      </trkpt>
      <trkpt lat="44.33284" lon="3.58812">
        <ele>547.33</ele>
        <time>2023-09-15T07:33:02Z</time>
      </trkpt>
      <trkpt lat="44.33275" lon="3.58835">
        <ele>547.33</ele>
        <time>2023-09-15T07:33:18Z</time>
      </trkpt>
      <trkpt lat="44.33265" lon="3.5886">
        <ele>547.33</ele>
        <time>2023-09-15T07:33:34Z</time>
      </trkpt>
      <trkpt lat="44.33258" lon="3.58888">
        <ele>545.33</ele>
        <time>2023-09-15T07:33:50Z</time>
      </trkpt>
      <trkpt lat="44.33248" lon="3.5891">
        <ele>544.33</ele>
        <time>2023-09-15T07:34:06Z</time>
      </trkpt>
      <trkpt lat="44.3324" lon="3.5894">
        <ele>543.33</ele>
        <time>2023-09-15T07:34:26Z</time>
      </trkpt>
      <trkpt lat="44.33229" lon="3.58967">
        <ele>543.33</ele>
        <time>2023-09-15T07:34:46Z</time>
      </trkpt>
      <trkpt lat="44.33218" lon="3.58991">
        <ele>544.33</ele>
        <time>2023-09-15T07:35:02Z</time>
      </trkpt>
      <trkpt lat="44.33208" lon="3.59015">
        <ele>545.33</ele>
        <time>2023-09-15T07:35:18Z</time>
      </trkpt>
      <trkpt lat="44.33197" lon="3.59043">
        <ele>544.33</ele>
        <time>2023-09-15T07:35:38Z</time>
      </trkpt>
      <trkpt lat="44.33185" lon="3.59066">
        <ele>542.33</ele>
        <time>2023-09-15T07:35:54Z</time>
      </trkpt>
      <trkpt lat="44.33175" lon="3.59088">
        <ele>542.33</ele>
        <time>2023-09-15T07:36:10Z</time>
      </trkpt>
      <trkpt lat="44.33163" lon="3.59107">
        <ele>541.33</ele>
        <time>2023-09-15T07:36:26Z</time>
      </trkpt>
      <trkpt lat="44.33145" lon="3.59107">
        <ele>542.33</ele>
        <time>2023-09-15T07:36:42Z</time>
      </trkpt>
      <trkpt lat="44.3313" lon="3.59084">
        <ele>545.33</ele>
        <time>2023-09-15T07:37:02Z</time>
      </trkpt>
      <trkpt lat="44.33115" lon="3.59061">
        <ele>546.33</ele>
        <time>2023-09-15T07:37:26Z</time>
      </trkpt>
      <trkpt lat="44.33098" lon="3.59048">
        <ele>546.33</ele>
        <time>2023-09-15T07:37:43Z</time>
      </trkpt>
      <trkpt lat="44.33078" lon="3.59042">
        <ele>547.33</ele>
        <time>2023-09-15T07:37:59Z</time>
      </trkpt>
      <trkpt lat="44.33055" lon="3.59043">
        <ele>546.33</ele>
        <time>2023-09-15T07:38:19Z</time>
      </trkpt>
      <trkpt lat="44.33038" lon="3.59056">
        <ele>545.33</ele>
        <time>2023-09-15T07:38:35Z</time>
      </trkpt>
      <trkpt lat="44.33019" lon="3.59072">
        <ele>542.33</ele>
        <time>2023-09-15T07:38:51Z</time>
      </trkpt>
      <trkpt lat="44.33003" lon="3.59086">
        <ele>544.33</ele>
        <time>2023-09-15T07:39:07Z</time>
      </trkpt>
      <trkpt lat="44.32987" lon="3.59099">
        <ele>545.33</ele>
        <time>2023-09-15T07:39:23Z</time>
      </trkpt>
      <trkpt lat="44.3297" lon="3.59114">
        <ele>544.33</ele>
        <time>2023-09-15T07:39:39Z</time>
      </trkpt>
      <trkpt lat="44.32954" lon="3.59102">
        <ele>543.33</ele>
        <time>2023-09-15T07:41:15Z</time>
      </trkpt>
      <trkpt lat="44.32937" lon="3.5909">
        <ele>543.33</ele>
        <time>2023-09-15T07:41:39Z</time>
      </trkpt>
      <trkpt lat="44.32914" lon="3.59099">
        <ele>552.33</ele>
        <time>2023-09-15T07:42:51Z</time>
      </trkpt>
      <trkpt lat="44.329" lon="3.59132">
        <ele>555.33</ele>
        <time>2023-09-15T07:43:04Z</time>
      </trkpt>
      <trkpt lat="44.32907" lon="3.59106">
        <ele>556.33</ele>
        <time>2023-09-15T07:43:17Z</time>
      </trkpt>
      <trkpt lat="44.32929" lon="3.5908">
        <ele>571.33</ele>
        <time>2023-09-15T07:49:49Z</time>
      </trkpt>
      <trkpt lat="44.32922" lon="3.59105">
        <ele>578.33</ele>
        <time>2023-09-15T07:50:46Z</time>
      </trkpt>
      <trkpt lat="44.32936" lon="3.59122">
        <ele>544.33</ele>
        <time>2023-09-15T07:56:53Z</time>
      </trkpt>
      <trkpt lat="44.32925" lon="3.59142">
        <ele>544.33</ele>
        <time>2023-09-15T07:58:21Z</time>
      </trkpt>
      <trkpt lat="44.32906" lon="3.59155">
        <ele>544.33</ele>
        <time>2023-09-15T07:58:41Z</time>
      </trkpt>
      <trkpt lat="44.32887" lon="3.59151">
        <ele>545.33</ele>
        <time>2023-09-15T07:59:01Z</time>
      </trkpt>
      <trkpt lat="44.3287" lon="3.59141">
        <ele>545.33</ele>
        <time>2023-09-15T07:59:17Z</time>
      </trkpt>
      <trkpt lat="44.32869" lon="3.59169">
        <ele>546.33</ele>
        <time>2023-09-15T07:59:41Z</time>
      </trkpt>
      <trkpt lat="44.3285" lon="3.59158">
        <ele>546.33</ele>
        <time>2023-09-15T08:00:25Z</time>
      </trkpt>
      <trkpt lat="44.32859" lon="3.59183">
        <ele>545.33</ele>
        <time>2023-09-15T08:01:17Z</time>
      </trkpt>
      <trkpt lat="44.32849" lon="3.59207">
        <ele>541.33</ele>
        <time>2023-09-15T08:04:57Z</time>
      </trkpt>
      <trkpt lat="44.32831" lon="3.59217">
        <ele>544.33</ele>
        <time>2023-09-15T08:05:13Z</time>
      </trkpt>
      <trkpt lat="44.32815" lon="3.59234">
        <ele>544.33</ele>
        <time>2023-09-15T08:05:33Z</time>
      </trkpt>
      <trkpt lat="44.32802" lon="3.59254">
        <ele>545.33</ele>
        <time>2023-09-15T08:05:53Z</time>
      </trkpt>
      <trkpt lat="44.32785" lon="3.59266">
        <ele>546.33</ele>
        <time>2023-09-15T08:06:13Z</time>
      </trkpt>
      <trkpt lat="44.32766" lon="3.59278">
        <ele>550.33</ele>
        <time>2023-09-15T08:06:49Z</time>
      </trkpt>
      <trkpt lat="44.32746" lon="3.59289">
        <ele>549.33</ele>
        <time>2023-09-15T08:07:09Z</time>
      </trkpt>
      <trkpt lat="44.32729" lon="3.59302">
        <ele>550.33</ele>
        <time>2023-09-15T08:07:25Z</time>
      </trkpt>
      <trkpt lat="44.32712" lon="3.59313">
        <ele>549.33</ele>
        <time>2023-09-15T08:07:41Z</time>
      </trkpt>
      <trkpt lat="44.32695" lon="3.59325">
        <ele>551.33</ele>
        <time>2023-09-15T08:07:53Z</time>
      </trkpt>
      <trkpt lat="44.3268" lon="3.59339">
        <ele>549.33</ele>
        <time>2023-09-15T08:08:17Z</time>
      </trkpt>
      <trkpt lat="44.32662" lon="3.59353">
        <ele>548.33</ele>
        <time>2023-09-15T08:08:33Z</time>
      </trkpt>
      <trkpt lat="44.32644" lon="3.59365">
        <ele>548.33</ele>
        <time>2023-09-15T08:08:49Z</time>
      </trkpt>
      <trkpt lat="44.32629" lon="3.59383">
        <ele>551.33</ele>
        <time>2023-09-15T08:09:05Z</time>
      </trkpt>
      <trkpt lat="44.32613" lon="3.59401">
        <ele>550.33</ele>
        <time>2023-09-15T08:09:21Z</time>
      </trkpt>
      <trkpt lat="44.32596" lon="3.59416">
        <ele>553.33</ele>
        <time>2023-09-15T08:09:37Z</time>
      </trkpt>
      <trkpt lat="44.32575" lon="3.59427">
        <ele>555.33</ele>
        <time>2023-09-15T08:09:57Z</time>
      </trkpt>
      <trkpt lat="44.32557" lon="3.59433">
        <ele>551.33</ele>
        <time>2023-09-15T08:10:45Z</time>
      </trkpt>
      <trkpt lat="44.32544" lon="3.59458">
        <ele>554.33</ele>
        <time>2023-09-15T08:17:05Z</time>
      </trkpt>
      <trkpt lat="44.32526" lon="3.59467">
        <ele>556.33</ele>
        <time>2023-09-15T08:17:17Z</time>
      </trkpt>
      <trkpt lat="44.32506" lon="3.59481">
        <ele>554.33</ele>
        <time>2023-09-15T08:17:37Z</time>
      </trkpt>
      <trkpt lat="44.32486" lon="3.59493">
        <ele>554.33</ele>
        <time>2023-09-15T08:17:53Z</time>
      </trkpt>
      <trkpt lat="44.3247" lon="3.59513">
        <ele>554.33</ele>
        <time>2023-09-15T08:18:13Z</time>
      </trkpt>
      <trkpt lat="44.32448" lon="3.59524">
        <ele>548.33</ele>
        <time>2023-09-15T08:18:29Z</time>
      </trkpt>
      <trkpt lat="44.32431" lon="3.59538">
        <ele>547.33</ele>
        <time>2023-09-15T08:18:45Z</time>
      </trkpt>
      <trkpt lat="44.32412" lon="3.5955">
        <ele>546.33</ele>
        <time>2023-09-15T08:19:05Z</time>
      </trkpt>
      <trkpt lat="44.32393" lon="3.59567">
        <ele>548.33</ele>
        <time>2023-09-15T08:19:21Z</time>
      </trkpt>
      <trkpt lat="44.32377" lon="3.5958">
        <ele>546.33</ele>
        <time>2023-09-15T08:19:37Z</time>
      </trkpt>
      <trkpt lat="44.32359" lon="3.59596">
        <ele>546.33</ele>
        <time>2023-09-15T08:19:53Z</time>
      </trkpt>
      <trkpt lat="44.32342" lon="3.59608">
        <ele>546.33</ele>
        <time>2023-09-15T08:20:09Z</time>
      </trkpt>
      <trkpt lat="44.32323" lon="3.59616">
        <ele>549.33</ele>
        <time>2023-09-15T08:20:25Z</time>
      </trkpt>
      <trkpt lat="44.32304" lon="3.59618">
        <ele>549.33</ele>
        <time>2023-09-15T08:20:42Z</time>
      </trkpt>
      <trkpt lat="44.32286" lon="3.5962">
        <ele>550.33</ele>
        <time>2023-09-15T08:20:58Z</time>
      </trkpt>
      <trkpt lat="44.32265" lon="3.59635">
        <ele>551.33</ele>
        <time>2023-09-15T08:21:38Z</time>
      </trkpt>
      <trkpt lat="44.32244" lon="3.59641">
        <ele>549.33</ele>
        <time>2023-09-15T08:21:54Z</time>
      </trkpt>
      <trkpt lat="44.32227" lon="3.59645">
        <ele>550.33</ele>
        <time>2023-09-15T08:22:10Z</time>
      </trkpt>
      <trkpt lat="44.32206" lon="3.5965">
        <ele>549.33</ele>
        <time>2023-09-15T08:22:30Z</time>
      </trkpt>
      <trkpt lat="44.32184" lon="3.5965">
        <ele>548.33</ele>
        <time>2023-09-15T08:22:46Z</time>
      </trkpt>
      <trkpt lat="44.32162" lon="3.59652">
        <ele>549.33</ele>
        <time>2023-09-15T08:23:02Z</time>
      </trkpt>
      <trkpt lat="44.32144" lon="3.59657">
        <ele>550.33</ele>
        <time>2023-09-15T08:23:18Z</time>
      </trkpt>
      <trkpt lat="44.32125" lon="3.59657">
        <ele>551.33</ele>
        <time>2023-09-15T08:23:34Z</time>
      </trkpt>
      <trkpt lat="44.32104" lon="3.59668">
        <ele>552.33</ele>
        <time>2023-09-15T08:23:50Z</time>
      </trkpt>
      <trkpt lat="44.32087" lon="3.59681">
        <ele>552.33</ele>
        <time>2023-09-15T08:24:06Z</time>
      </trkpt>
      <trkpt lat="44.32065" lon="3.59692">
        <ele>553.33</ele>
        <time>2023-09-15T08:24:26Z</time>
      </trkpt>
      <trkpt lat="44.32046" lon="3.59707">
        <ele>551.33</ele>
        <time>2023-09-15T08:24:42Z</time>
      </trkpt>
      <trkpt lat="44.32027" lon="3.59716">
        <ele>551.33</ele>
        <time>2023-09-15T08:24:58Z</time>
      </trkpt>
      <trkpt lat="44.32007" lon="3.5973">
        <ele>550.33</ele>
        <time>2023-09-15T08:25:14Z</time>
      </trkpt>
      <trkpt lat="44.31986" lon="3.5974">
        <ele>553.33</ele>
        <time>2023-09-15T08:25:31Z</time>
      </trkpt>
      <trkpt lat="44.31965" lon="3.5975">
        <ele>552.33</ele>
        <time>2023-09-15T08:25:51Z</time>
      </trkpt>
      <trkpt lat="44.31945" lon="3.59756">
        <ele>551.33</ele>
        <time>2023-09-15T08:26:07Z</time>
      </trkpt>
      <trkpt lat="44.31926" lon="3.5976">
        <ele>549.33</ele>
        <time>2023-09-15T08:26:23Z</time>
      </trkpt>
      <trkpt lat="44.31907" lon="3.59764">
        <ele>551.33</ele>
        <time>2023-09-15T08:26:47Z</time>
      </trkpt>
      <trkpt lat="44.31887" lon="3.59773">
        <ele>551.33</ele>
        <time>2023-09-15T08:27:03Z</time>
      </trkpt>
      <trkpt lat="44.31867" lon="3.59777">
        <ele>549.33</ele>
        <time>2023-09-15T08:27:19Z</time>
      </trkpt>
      <trkpt lat="44.31847" lon="3.59782">
        <ele>550.33</ele>
        <time>2023-09-15T08:27:35Z</time>
      </trkpt>
      <trkpt lat="44.31829" lon="3.59797">
        <ele>549.33</ele>
        <time>2023-09-15T08:27:59Z</time>
      </trkpt>
      <trkpt lat="44.31812" lon="3.59807">
        <ele>551.33</ele>
        <time>2023-09-15T08:28:15Z</time>
      </trkpt>
      <trkpt lat="44.31793" lon="3.5981">
        <ele>551.33</ele>
        <time>2023-09-15T08:28:51Z</time>
      </trkpt>
      <trkpt lat="44.31774" lon="3.59812">
        <ele>551.33</ele>
        <time>2023-09-15T08:29:08Z</time>
      </trkpt>
      <trkpt lat="44.31753" lon="3.59815">
        <ele>551.33</ele>
        <time>2023-09-15T08:29:25Z</time>
      </trkpt>
      <trkpt lat="44.31732" lon="3.59817">
        <ele>550.33</ele>
        <time>2023-09-15T08:29:42Z</time>
      </trkpt>
      <trkpt lat="44.31714" lon="3.59817">
        <ele>551.33</ele>
        <time>2023-09-15T08:29:58Z</time>
      </trkpt>
      <trkpt lat="44.31694" lon="3.59816">
        <ele>549.33</ele>
        <time>2023-09-15T08:30:14Z</time>
      </trkpt>
      <trkpt lat="44.31672" lon="3.59809">
        <ele>548.33</ele>
        <time>2023-09-15T08:30:34Z</time>
      </trkpt>
      <trkpt lat="44.31654" lon="3.59803">
        <ele>548.33</ele>
        <time>2023-09-15T08:30:50Z</time>
      </trkpt>
      <trkpt lat="44.31634" lon="3.59795">
        <ele>548.33</ele>
        <time>2023-09-15T08:31:07Z</time>
      </trkpt>
      <trkpt lat="44.31611" lon="3.59796">
        <ele>546.33</ele>
        <time>2023-09-15T08:31:23Z</time>
      </trkpt>
      <trkpt lat="44.31589" lon="3.59794">
        <ele>542.33</ele>
        <time>2023-09-15T08:31:43Z</time>
      </trkpt>
      <trkpt lat="44.31569" lon="3.5979">
        <ele>544.33</ele>
        <time>2023-09-15T08:31:59Z</time>
      </trkpt>
      <trkpt lat="44.31552" lon="3.59774">
        <ele>542.33</ele>
        <time>2023-09-15T08:32:19Z</time>
      </trkpt>
      <trkpt lat="44.31532" lon="3.59765">
        <ele>541.33</ele>
        <time>2023-09-15T08:32:35Z</time>
      </trkpt>
      <trkpt lat="44.31511" lon="3.59761">
        <ele>542.33</ele>
        <time>2023-09-15T08:32:51Z</time>
      </trkpt>
      <trkpt lat="44.31492" lon="3.59764">
        <ele>542.33</ele>
        <time>2023-09-15T08:33:03Z</time>
      </trkpt>
      <trkpt lat="44.31474" lon="3.59763">
        <ele>541.33</ele>
        <time>2023-09-15T08:33:19Z</time>
      </trkpt>
      <trkpt lat="44.31452" lon="3.59767">
        <ele>547.33</ele>
        <time>2023-09-15T08:33:35Z</time>
      </trkpt>
      <trkpt lat="44.31432" lon="3.5977">
        <ele>549.33</ele>
        <time>2023-09-15T08:33:51Z</time>
      </trkpt>
      <trkpt lat="44.31411" lon="3.59763">
        <ele>550.33</ele>
        <time>2023-09-15T08:34:07Z</time>
      </trkpt>
      <trkpt lat="44.31392" lon="3.59766">
        <ele>546.33</ele>
        <time>2023-09-15T08:34:23Z</time>
      </trkpt>
      <trkpt lat="44.31371" lon="3.59764">
        <ele>544.33</ele>
        <time>2023-09-15T08:34:39Z</time>
      </trkpt>
      <trkpt lat="44.3135" lon="3.59773">
        <ele>545.33</ele>
        <time>2023-09-15T08:34:55Z</time>
      </trkpt>
      <trkpt lat="44.31333" lon="3.59787">
        <ele>546.33</ele>
        <time>2023-09-15T08:35:11Z</time>
      </trkpt>
      <trkpt lat="44.31316" lon="3.59806">
        <ele>549.33</ele>
        <time>2023-09-15T08:35:27Z</time>
      </trkpt>
      <trkpt lat="44.31297" lon="3.59816">
        <ele>550.33</ele>
        <time>2023-09-15T08:35:43Z</time>
      </trkpt>
      <trkpt lat="44.31277" lon="3.59823">
        <ele>552.33</ele>
        <time>2023-09-15T08:35:59Z</time>
      </trkpt>
      <trkpt lat="44.31266" lon="3.59845">
        <ele>554.33</ele>
        <time>2023-09-15T08:36:43Z</time>
      </trkpt>
      <trkpt lat="44.31252" lon="3.59827">
        <ele>553.33</ele>
        <time>2023-09-15T08:37:15Z</time>
      </trkpt>
      <trkpt lat="44.31265" lon="3.59844">
        <ele>550.33</ele>
        <time>2023-09-15T08:38:23Z</time>
      </trkpt>
      <trkpt lat="44.31266" lon="3.5987">
        <ele>552.33</ele>
        <time>2023-09-15T08:43:11Z</time>
      </trkpt>
      <trkpt lat="44.31265" lon="3.59842">
        <ele>556.33</ele>
        <time>2023-09-15T08:48:33Z</time>
      </trkpt>
      <trkpt lat="44.31268" lon="3.59867">
        <ele>563.33</ele>
        <time>2023-09-15T08:59:09Z</time>
      </trkpt>
      <trkpt lat="44.31285" lon="3.59877">
        <ele>567.33</ele>
        <time>2023-09-15T08:59:33Z</time>
      </trkpt>
      <trkpt lat="44.31303" lon="3.59881">
        <ele>571.33</ele>
        <time>2023-09-15T09:00:05Z</time>
      </trkpt>
      <trkpt lat="44.31323" lon="3.59886">
        <ele>579.33</ele>
        <time>2023-09-15T09:00:33Z</time>
      </trkpt>
      <trkpt lat="44.31342" lon="3.59881">
        <ele>575.33</ele>
        <time>2023-09-15T09:00:58Z</time>
      </trkpt>
      <trkpt lat="44.31361" lon="3.59885">
        <ele>586.33</ele>
        <time>2023-09-15T09:01:36Z</time>
      </trkpt>
      <trkpt lat="44.31379" lon="3.59878">
        <ele>591.33</ele>
        <time>2023-09-15T09:02:04Z</time>
      </trkpt>
      <trkpt lat="44.314" lon="3.59879">
        <ele>595.33</ele>
        <time>2023-09-15T09:02:36Z</time>
      </trkpt>
      <trkpt lat="44.31419" lon="3.59889">
        <ele>596.33</ele>
        <time>2023-09-15T09:03:00Z</time>
      </trkpt>
      <trkpt lat="44.31433" lon="3.59904">
        <ele>597.33</ele>
        <time>2023-09-15T09:03:24Z</time>
      </trkpt>
      <trkpt lat="44.31453" lon="3.59918">
        <ele>599.33</ele>
        <time>2023-09-15T09:03:52Z</time>
      </trkpt>
      <trkpt lat="44.31469" lon="3.59933">
        <ele>600.33</ele>
        <time>2023-09-15T09:04:16Z</time>
      </trkpt>
      <trkpt lat="44.31486" lon="3.59943">
        <ele>602.33</ele>
        <time>2023-09-15T09:04:40Z</time>
      </trkpt>
      <trkpt lat="44.31505" lon="3.59954">
        <ele>600.33</ele>
        <time>2023-09-15T09:05:04Z</time>
      </trkpt>
      <trkpt lat="44.31523" lon="3.5997">
        <ele>599.33</ele>
        <time>2023-09-15T09:05:32Z</time>
      </trkpt>
      <trkpt lat="44.31536" lon="3.59987">
        <ele>595.33</ele>
        <time>2023-09-15T09:05:56Z</time>
      </trkpt>
      <trkpt lat="44.3155" lon="3.60003">
        <ele>591.33</ele>
        <time>2023-09-15T09:06:24Z</time>
      </trkpt>
      <trkpt lat="44.3156" lon="3.60026">
        <ele>590.33</ele>
        <time>2023-09-15T09:06:48Z</time>
      </trkpt>
      <trkpt lat="44.31562" lon="3.60055">
        <ele>587.33</ele>
        <time>2023-09-15T09:07:08Z</time>
      </trkpt>
      <trkpt lat="44.31567" lon="3.60084">
        <ele>583.33</ele>
        <time>2023-09-15T09:07:28Z</time>
      </trkpt>
      <trkpt lat="44.31561" lon="3.6011">
        <ele>582.33</ele>
        <time>2023-09-15T09:07:44Z</time>
      </trkpt>
      <trkpt lat="44.31558" lon="3.60138">
        <ele>580.33</ele>
        <time>2023-09-15T09:08:04Z</time>
      </trkpt>
      <trkpt lat="44.3155" lon="3.60165">
        <ele>571.33</ele>
        <time>2023-09-15T09:08:24Z</time>
      </trkpt>
      <trkpt lat="44.31542" lon="3.60193">
        <ele>573.33</ele>
        <time>2023-09-15T09:08:44Z</time>
      </trkpt>
      <trkpt lat="44.31528" lon="3.60211">
        <ele>574.33</ele>
        <time>2023-09-15T09:09:04Z</time>
      </trkpt>
      <trkpt lat="44.31515" lon="3.60237">
        <ele>575.33</ele>
        <time>2023-09-15T09:09:24Z</time>
      </trkpt>
      <trkpt lat="44.31516" lon="3.60267">
        <ele>578.33</ele>
        <time>2023-09-15T09:09:44Z</time>
      </trkpt>
      <trkpt lat="44.31515" lon="3.60298">
        <ele>579.33</ele>
        <time>2023-09-15T09:10:04Z</time>
      </trkpt>
      <trkpt lat="44.31504" lon="3.60324">
        <ele>578.33</ele>
        <time>2023-09-15T09:10:20Z</time>
      </trkpt>
      <trkpt lat="44.31506" lon="3.6035">
        <ele>578.33</ele>
        <time>2023-09-15T09:10:40Z</time>
      </trkpt>
      <trkpt lat="44.31506" lon="3.60379">
        <ele>581.33</ele>
        <time>2023-09-15T09:10:56Z</time>
      </trkpt>
      <trkpt lat="44.31516" lon="3.60405">
        <ele>583.33</ele>
        <time>2023-09-15T09:11:12Z</time>
      </trkpt>
      <trkpt lat="44.31523" lon="3.60431">
        <ele>584.33</ele>
        <time>2023-09-15T09:11:28Z</time>
      </trkpt>
      <trkpt lat="44.31526" lon="3.60457">
        <ele>585.33</ele>
        <time>2023-09-15T09:11:48Z</time>
      </trkpt>
      <trkpt lat="44.31536" lon="3.60482">
        <ele>586.33</ele>
        <time>2023-09-15T09:12:08Z</time>
      </trkpt>
      <trkpt lat="44.31548" lon="3.60504">
        <ele>584.33</ele>
        <time>2023-09-15T09:12:20Z</time>
      </trkpt>
      <trkpt lat="44.31558" lon="3.60531">
        <ele>584.33</ele>
        <time>2023-09-15T09:12:40Z</time>
      </trkpt>
      <trkpt lat="44.31564" lon="3.6056">
        <ele>581.33</ele>
        <time>2023-09-15T09:13:00Z</time>
      </trkpt>
      <trkpt lat="44.31551" lon="3.60578">
        <ele>582.33</ele>
        <time>2023-09-15T09:13:16Z</time>
      </trkpt>
      <trkpt lat="44.3154" lon="3.60604">
        <ele>577.33</ele>
        <time>2023-09-15T09:13:36Z</time>
      </trkpt>
      <trkpt lat="44.31542" lon="3.60631">
        <ele>581.33</ele>
        <time>2023-09-15T09:13:52Z</time>
      </trkpt>
      <trkpt lat="44.31561" lon="3.60642">
        <ele>572.33</ele>
        <time>2023-09-15T09:14:08Z</time>
      </trkpt>
      <trkpt lat="44.31582" lon="3.60634">
        <ele>573.33</ele>
        <time>2023-09-15T09:14:36Z</time>
      </trkpt>
      <trkpt lat="44.316" lon="3.60621">
        <ele>579.33</ele>
        <time>2023-09-15T09:15:00Z</time>
      </trkpt>
      <trkpt lat="44.3162" lon="3.6063">
        <ele>585.33</ele>
        <time>2023-09-15T09:15:20Z</time>
      </trkpt>
      <trkpt lat="44.31635" lon="3.60645">
        <ele>587.33</ele>
        <time>2023-09-15T09:15:37Z</time>
      </trkpt>
      <trkpt lat="44.3165" lon="3.60662">
        <ele>591.33</ele>
        <time>2023-09-15T09:16:05Z</time>
      </trkpt>
      <trkpt lat="44.31665" lon="3.60676">
        <ele>591.33</ele>
        <time>2023-09-15T09:16:25Z</time>
      </trkpt>
      <trkpt lat="44.31683" lon="3.60694">
        <ele>582.33</ele>
        <time>2023-09-15T09:16:49Z</time>
      </trkpt>
      <trkpt lat="44.31697" lon="3.6071">
        <ele>585.33</ele>
        <time>2023-09-15T09:17:05Z</time>
      </trkpt>
      <trkpt lat="44.31709" lon="3.60731">
        <ele>588.33</ele>
        <time>2023-09-15T09:17:33Z</time>
      </trkpt>
      <trkpt lat="44.31725" lon="3.60748">
        <ele>586.33</ele>
        <time>2023-09-15T09:17:49Z</time>
      </trkpt>
      <trkpt lat="44.31741" lon="3.60765">
        <ele>589.33</ele>
        <time>2023-09-15T09:18:05Z</time>
      </trkpt>
      <trkpt lat="44.31759" lon="3.60784">
        <ele>589.33</ele>
        <time>2023-09-15T09:18:21Z</time>
      </trkpt>
      <trkpt lat="44.31773" lon="3.60804">
        <ele>588.33</ele>
        <time>2023-09-15T09:18:41Z</time>
      </trkpt>
      <trkpt lat="44.31782" lon="3.60832">
        <ele>589.33</ele>
        <time>2023-09-15T09:19:05Z</time>
      </trkpt>
      <trkpt lat="44.31785" lon="3.6086">
        <ele>588.33</ele>
        <time>2023-09-15T09:19:25Z</time>
      </trkpt>
      <trkpt lat="44.31785" lon="3.60891">
        <ele>588.33</ele>
        <time>2023-09-15T09:19:49Z</time>
      </trkpt>
      <trkpt lat="44.31783" lon="3.60921">
        <ele>590.33</ele>
        <time>2023-09-15T09:20:09Z</time>
      </trkpt>
      <trkpt lat="44.31769" lon="3.6094">
        <ele>594.33</ele>
        <time>2023-09-15T09:20:29Z</time>
      </trkpt>
      <trkpt lat="44.31756" lon="3.60961">
        <ele>593.33</ele>
        <time>2023-09-15T09:20:49Z</time>
      </trkpt>
      <trkpt lat="44.31743" lon="3.60984">
        <ele>596.33</ele>
        <time>2023-09-15T09:21:09Z</time>
      </trkpt>
      <trkpt lat="44.31734" lon="3.61008">
        <ele>594.33</ele>
        <time>2023-09-15T09:21:29Z</time>
      </trkpt>
      <trkpt lat="44.31721" lon="3.61026">
        <ele>597.33</ele>
        <time>2023-09-15T09:21:49Z</time>
      </trkpt>
      <trkpt lat="44.31708" lon="3.61045">
        <ele>596.33</ele>
        <time>2023-09-15T09:22:09Z</time>
      </trkpt>
      <trkpt lat="44.31694" lon="3.61067">
        <ele>598.33</ele>
        <time>2023-09-15T09:22:29Z</time>
      </trkpt>
      <trkpt lat="44.3168" lon="3.61086">
        <ele>602.33</ele>
        <time>2023-09-15T09:22:53Z</time>
      </trkpt>
      <trkpt lat="44.31662" lon="3.61102">
        <ele>604.33</ele>
        <time>2023-09-15T09:23:13Z</time>
      </trkpt>
      <trkpt lat="44.3164" lon="3.61111">
        <ele>604.33</ele>
        <time>2023-09-15T09:23:37Z</time>
      </trkpt>
      <trkpt lat="44.31622" lon="3.61122">
        <ele>606.33</ele>
        <time>2023-09-15T09:23:57Z</time>
      </trkpt>
      <trkpt lat="44.31603" lon="3.61128">
        <ele>614.33</ele>
        <time>2023-09-15T09:24:21Z</time>
      </trkpt>
      <trkpt lat="44.31583" lon="3.61132">
        <ele>612.33</ele>
        <time>2023-09-15T09:28:49Z</time>
      </trkpt>
      <trkpt lat="44.31561" lon="3.61129">
        <ele>616.33</ele>
        <time>2023-09-15T09:29:13Z</time>
      </trkpt>
      <trkpt lat="44.31542" lon="3.61133">
        <ele>620.33</ele>
        <time>2023-09-15T09:29:33Z</time>
      </trkpt>
      <trkpt lat="44.31521" lon="3.6114">
        <ele>619.33</ele>
        <time>2023-09-15T09:29:55Z</time>
      </trkpt>
      <trkpt lat="44.31504" lon="3.61153">
        <ele>623.33</ele>
        <time>2023-09-15T09:30:15Z</time>
      </trkpt>
      <trkpt lat="44.31488" lon="3.61164">
        <ele>623.33</ele>
        <time>2023-09-15T09:30:39Z</time>
      </trkpt>
      <trkpt lat="44.31468" lon="3.6117">
        <ele>627.33</ele>
        <time>2023-09-15T09:30:59Z</time>
      </trkpt>
      <trkpt lat="44.31449" lon="3.61176">
        <ele>626.33</ele>
        <time>2023-09-15T09:31:19Z</time>
      </trkpt>
      <trkpt lat="44.31431" lon="3.61189">
        <ele>628.33</ele>
        <time>2023-09-15T09:31:39Z</time>
      </trkpt>
      <trkpt lat="44.31416" lon="3.61202">
        <ele>627.33</ele>
        <time>2023-09-15T09:31:55Z</time>
      </trkpt>
      <trkpt lat="44.31398" lon="3.61218">
        <ele>630.33</ele>
        <time>2023-09-15T09:32:19Z</time>
      </trkpt>
      <trkpt lat="44.31382" lon="3.61239">
        <ele>630.33</ele>
        <time>2023-09-15T09:32:39Z</time>
      </trkpt>
      <trkpt lat="44.31367" lon="3.61261">
        <ele>627.33</ele>
        <time>2023-09-15T09:32:59Z</time>
      </trkpt>
      <trkpt lat="44.31355" lon="3.61287">
        <ele>626.33</ele>
        <time>2023-09-15T09:33:19Z</time>
      </trkpt>
      <trkpt lat="44.31347" lon="3.61315">
        <ele>628.33</ele>
        <time>2023-09-15T09:33:39Z</time>
      </trkpt>
      <trkpt lat="44.31337" lon="3.61343">
        <ele>624.33</ele>
        <time>2023-09-15T09:33:59Z</time>
      </trkpt>
      <trkpt lat="44.31325" lon="3.61366">
        <ele>627.33</ele>
        <time>2023-09-15T09:34:19Z</time>
      </trkpt>
      <trkpt lat="44.31314" lon="3.61388">
        <ele>623.33</ele>
        <time>2023-09-15T09:34:35Z</time>
      </trkpt>
      <trkpt lat="44.31313" lon="3.61418">
        <ele>623.33</ele>
        <time>2023-09-15T09:34:51Z</time>
      </trkpt>
      <trkpt lat="44.31311" lon="3.61446">
        <ele>620.33</ele>
        <time>2023-09-15T09:35:07Z</time>
      </trkpt>
      <trkpt lat="44.31308" lon="3.61471">
        <ele>619.33</ele>
        <time>2023-09-15T09:35:23Z</time>
      </trkpt>
      <trkpt lat="44.31302" lon="3.61495">
        <ele>617.33</ele>
        <time>2023-09-15T09:35:39Z</time>
      </trkpt>
      <trkpt lat="44.31299" lon="3.61521">
        <ele>618.33</ele>
        <time>2023-09-15T09:35:55Z</time>
      </trkpt>
      <trkpt lat="44.31296" lon="3.61546">
        <ele>617.33</ele>
        <time>2023-09-15T09:36:11Z</time>
      </trkpt>
      <trkpt lat="44.31293" lon="3.61572">
        <ele>618.33</ele>
        <time>2023-09-15T09:36:27Z</time>
      </trkpt>
      <trkpt lat="44.31288" lon="3.616">
        <ele>618.33</ele>
        <time>2023-09-15T09:36:47Z</time>
      </trkpt>
      <trkpt lat="44.31284" lon="3.61626">
        <ele>617.33</ele>
        <time>2023-09-15T09:37:03Z</time>
      </trkpt>
      <trkpt lat="44.31276" lon="3.6165">
        <ele>616.33</ele>
        <time>2023-09-15T09:37:19Z</time>
      </trkpt>
      <trkpt lat="44.31273" lon="3.61675">
        <ele>612.33</ele>
        <time>2023-09-15T09:37:35Z</time>
      </trkpt>
      <trkpt lat="44.31273" lon="3.61702">
        <ele>613.33</ele>
        <time>2023-09-15T09:37:51Z</time>
      </trkpt>
      <trkpt lat="44.31265" lon="3.6173">
        <ele>608.33</ele>
        <time>2023-09-15T09:38:11Z</time>
      </trkpt>
      <trkpt lat="44.3125" lon="3.61753">
        <ele>607.33</ele>
        <time>2023-09-15T09:38:35Z</time>
      </trkpt>
      <trkpt lat="44.3123" lon="3.61766">
        <ele>609.33</ele>
        <time>2023-09-15T09:38:55Z</time>
      </trkpt>
      <trkpt lat="44.31214" lon="3.61782">
        <ele>609.33</ele>
        <time>2023-09-15T09:39:11Z</time>
      </trkpt>
      <trkpt lat="44.312" lon="3.618">
        <ele>607.33</ele>
        <time>2023-09-15T09:39:27Z</time>
      </trkpt>
      <trkpt lat="44.31182" lon="3.61816">
        <ele>607.33</ele>
        <time>2023-09-15T09:39:43Z</time>
      </trkpt>
      <trkpt lat="44.3117" lon="3.61835">
        <ele>606.33</ele>
        <time>2023-09-15T09:39:59Z</time>
      </trkpt>
      <trkpt lat="44.3115" lon="3.61847">
        <ele>604.33</ele>
        <time>2023-09-15T09:40:19Z</time>
      </trkpt>
      <trkpt lat="44.31134" lon="3.61866">
        <ele>602.33</ele>
        <time>2023-09-15T09:40:39Z</time>
      </trkpt>
      <trkpt lat="44.31149" lon="3.61889">
        <ele>601.33</ele>
        <time>2023-09-15T09:41:19Z</time>
      </trkpt>
      <trkpt lat="44.31169" lon="3.61894">
        <ele>598.33</ele>
        <time>2023-09-15T09:41:35Z</time>
      </trkpt>
      <trkpt lat="44.31185" lon="3.61906">
        <ele>597.33</ele>
        <time>2023-09-15T09:41:51Z</time>
      </trkpt>
      <trkpt lat="44.31207" lon="3.61907">
        <ele>601.33</ele>
        <time>2023-09-15T09:42:07Z</time>
      </trkpt>
      <trkpt lat="44.31228" lon="3.61898">
        <ele>602.33</ele>
        <time>2023-09-15T09:42:27Z</time>
      </trkpt>
      <trkpt lat="44.31248" lon="3.61896">
        <ele>603.33</ele>
        <time>2023-09-15T09:42:43Z</time>
      </trkpt>
      <trkpt lat="44.31266" lon="3.61892">
        <ele>603.33</ele>
        <time>2023-09-15T09:42:59Z</time>
      </trkpt>
      <trkpt lat="44.31287" lon="3.61896">
        <ele>601.33</ele>
        <time>2023-09-15T09:43:15Z</time>
      </trkpt>
      <trkpt lat="44.31287" lon="3.61922">
        <ele>603.33</ele>
        <time>2023-09-15T09:43:55Z</time>
      </trkpt>
      <trkpt lat="44.31266" lon="3.61933">
        <ele>602.33</ele>
        <time>2023-09-15T09:44:15Z</time>
      </trkpt>
      <trkpt lat="44.31249" lon="3.61953">
        <ele>604.33</ele>
        <time>2023-09-15T09:44:36Z</time>
      </trkpt>
      <trkpt lat="44.31243" lon="3.6198">
        <ele>603.33</ele>
        <time>2023-09-15T09:44:52Z</time>
      </trkpt>
      <trkpt lat="44.31247" lon="3.62009">
        <ele>605.33</ele>
        <time>2023-09-15T09:45:12Z</time>
      </trkpt>
      <trkpt lat="44.3124" lon="3.62037">
        <ele>605.33</ele>
        <time>2023-09-15T09:45:36Z</time>
      </trkpt>
      <trkpt lat="44.31241" lon="3.62062">
        <ele>611.33</ele>
        <time>2023-09-15T09:45:56Z</time>
      </trkpt>
      <trkpt lat="44.31247" lon="3.62088">
        <ele>617.33</ele>
        <time>2023-09-15T09:47:00Z</time>
      </trkpt>
      <trkpt lat="44.31253" lon="3.62112">
        <ele>618.33</ele>
        <time>2023-09-15T09:47:20Z</time>
      </trkpt>
      <trkpt lat="44.31261" lon="3.6214">
        <ele>619.33</ele>
        <time>2023-09-15T09:47:40Z</time>
      </trkpt>
      <trkpt lat="44.31271" lon="3.62166">
        <ele>619.33</ele>
        <time>2023-09-15T09:48:04Z</time>
      </trkpt>
      <trkpt lat="44.31281" lon="3.62192">
        <ele>622.33</ele>
        <time>2023-09-15T09:48:24Z</time>
      </trkpt>
      <trkpt lat="44.31293" lon="3.62216">
        <ele>624.33</ele>
        <time>2023-09-15T09:48:44Z</time>
      </trkpt>
      <trkpt lat="44.31303" lon="3.62239">
        <ele>621.33</ele>
        <time>2023-09-15T09:49:24Z</time>
      </trkpt>
      <trkpt lat="44.31316" lon="3.62259">
        <ele>624.33</ele>
        <time>2023-09-15T09:49:40Z</time>
      </trkpt>
      <trkpt lat="44.31326" lon="3.62283">
        <ele>624.33</ele>
        <time>2023-09-15T09:50:00Z</time>
      </trkpt>
      <trkpt lat="44.31336" lon="3.62308">
        <ele>627.33</ele>
        <time>2023-09-15T09:50:20Z</time>
      </trkpt>
      <trkpt lat="44.31347" lon="3.62331">
        <ele>631.33</ele>
        <time>2023-09-15T09:50:40Z</time>
      </trkpt>
      <trkpt lat="44.3136" lon="3.62351">
        <ele>628.33</ele>
        <time>2023-09-15T09:51:00Z</time>
      </trkpt>
      <trkpt lat="44.31369" lon="3.62374">
        <ele>631.33</ele>
        <time>2023-09-15T09:51:20Z</time>
      </trkpt>
      <trkpt lat="44.31379" lon="3.62395">
        <ele>632.33</ele>
        <time>2023-09-15T09:51:44Z</time>
      </trkpt>
      <trkpt lat="44.31391" lon="3.62417">
        <ele>634.33</ele>
        <time>2023-09-15T09:52:04Z</time>
      </trkpt>
      <trkpt lat="44.31405" lon="3.6244">
        <ele>639.33</ele>
        <time>2023-09-15T09:52:29Z</time>
      </trkpt>
      <trkpt lat="44.31418" lon="3.62462">
        <ele>647.33</ele>
        <time>2023-09-15T09:52:53Z</time>
      </trkpt>
      <trkpt lat="44.31428" lon="3.62485">
        <ele>650.33</ele>
        <time>2023-09-15T09:53:21Z</time>
      </trkpt>
      <trkpt lat="44.31435" lon="3.62508">
        <ele>655.33</ele>
        <time>2023-09-15T09:53:41Z</time>
      </trkpt>
      <trkpt lat="44.31435" lon="3.62535">
        <ele>657.33</ele>
        <time>2023-09-15T09:54:01Z</time>
      </trkpt>
      <trkpt lat="44.3142" lon="3.62551">
        <ele>658.33</ele>
        <time>2023-09-15T09:54:21Z</time>
      </trkpt>
      <trkpt lat="44.31405" lon="3.62566">
        <ele>661.33</ele>
        <time>2023-09-15T09:54:41Z</time>
      </trkpt>
      <trkpt lat="44.31387" lon="3.62576">
        <ele>662.33</ele>
        <time>2023-09-15T09:55:01Z</time>
      </trkpt>
      <trkpt lat="44.3137" lon="3.62582">
        <ele>665.33</ele>
        <time>2023-09-15T09:55:21Z</time>
      </trkpt>
      <trkpt lat="44.31352" lon="3.62598">
        <ele>666.33</ele>
        <time>2023-09-15T09:55:41Z</time>
      </trkpt>
      <trkpt lat="44.31337" lon="3.62614">
        <ele>669.33</ele>
        <time>2023-09-15T09:56:01Z</time>
      </trkpt>
      <trkpt lat="44.31325" lon="3.62635">
        <ele>671.33</ele>
        <time>2023-09-15T09:56:29Z</time>
      </trkpt>
      <trkpt lat="44.31312" lon="3.62655">
        <ele>672.33</ele>
        <time>2023-09-15T09:59:54Z</time>
      </trkpt>
      <trkpt lat="44.31296" lon="3.62671">
        <ele>673.33</ele>
        <time>2023-09-15T10:00:15Z</time>
      </trkpt>
      <trkpt lat="44.3128" lon="3.62693">
        <ele>671.33</ele>
        <time>2023-09-15T10:00:35Z</time>
      </trkpt>
      <trkpt lat="44.31268" lon="3.62717">
        <ele>671.33</ele>
        <time>2023-09-15T10:00:55Z</time>
      </trkpt>
      <trkpt lat="44.31254" lon="3.62738">
        <ele>667.33</ele>
        <time>2023-09-15T10:01:15Z</time>
      </trkpt>
      <trkpt lat="44.31239" lon="3.62762">
        <ele>667.33</ele>
        <time>2023-09-15T10:01:35Z</time>
      </trkpt>
      <trkpt lat="44.31223" lon="3.62781">
        <ele>668.33</ele>
        <time>2023-09-15T10:01:59Z</time>
      </trkpt>
      <trkpt lat="44.31207" lon="3.628">
        <ele>668.33</ele>
        <time>2023-09-15T10:02:19Z</time>
      </trkpt>
      <trkpt lat="44.31199" lon="3.62825">
        <ele>667.33</ele>
        <time>2023-09-15T10:02:39Z</time>
      </trkpt>
      <trkpt lat="44.31195" lon="3.62854">
        <ele>667.33</ele>
        <time>2023-09-15T10:02:59Z</time>
      </trkpt>
      <trkpt lat="44.31186" lon="3.62879">
        <ele>666.33</ele>
        <time>2023-09-15T10:03:19Z</time>
      </trkpt>
      <trkpt lat="44.31175" lon="3.62902">
        <ele>667.33</ele>
        <time>2023-09-15T10:03:39Z</time>
      </trkpt>
      <trkpt lat="44.31163" lon="3.62926">
        <ele>667.33</ele>
        <time>2023-09-15T10:03:59Z</time>
      </trkpt>
      <trkpt lat="44.31158" lon="3.62951">
        <ele>666.33</ele>
        <time>2023-09-15T10:04:19Z</time>
      </trkpt>
      <trkpt lat="44.31158" lon="3.62977">
        <ele>666.33</ele>
        <time>2023-09-15T10:04:39Z</time>
      </trkpt>
      <trkpt lat="44.31154" lon="3.63004">
        <ele>664.33</ele>
        <time>2023-09-15T10:04:59Z</time>
      </trkpt>
      <trkpt lat="44.31152" lon="3.63032">
        <ele>662.33</ele>
        <time>2023-09-15T10:05:15Z</time>
      </trkpt>
      <trkpt lat="44.31143" lon="3.63058">
        <ele>659.33</ele>
        <time>2023-09-15T10:05:35Z</time>
      </trkpt>
      <trkpt lat="44.31135" lon="3.63082">
        <ele>659.33</ele>
        <time>2023-09-15T10:05:55Z</time>
      </trkpt>
      <trkpt lat="44.31123" lon="3.63108">
        <ele>660.33</ele>
        <time>2023-09-15T10:06:19Z</time>
      </trkpt>
      <trkpt lat="44.31111" lon="3.63127">
        <ele>657.33</ele>
        <time>2023-09-15T10:06:35Z</time>
      </trkpt>
      <trkpt lat="44.31099" lon="3.63149">
        <ele>658.33</ele>
        <time>2023-09-15T10:06:55Z</time>
      </trkpt>
      <trkpt lat="44.3108" lon="3.6316">
        <ele>660.33</ele>
        <time>2023-09-15T10:07:15Z</time>
      </trkpt>
      <trkpt lat="44.31061" lon="3.63169">
        <ele>660.33</ele>
        <time>2023-09-15T10:07:36Z</time>
      </trkpt>
      <trkpt lat="44.3104" lon="3.63171">
        <ele>660.33</ele>
        <time>2023-09-15T10:07:56Z</time>
      </trkpt>
      <trkpt lat="44.31021" lon="3.63157">
        <ele>658.33</ele>
        <time>2023-09-15T10:08:28Z</time>
      </trkpt>
      <trkpt lat="44.31004" lon="3.63147">
        <ele>657.33</ele>
        <time>2023-09-15T10:08:56Z</time>
      </trkpt>
      <trkpt lat="44.30986" lon="3.63134">
        <ele>660.33</ele>
        <time>2023-09-15T10:09:28Z</time>
      </trkpt>
      <trkpt lat="44.30969" lon="3.63118">
        <ele>662.33</ele>
        <time>2023-09-15T10:09:52Z</time>
      </trkpt>
      <trkpt lat="44.30956" lon="3.63097">
        <ele>666.33</ele>
        <time>2023-09-15T10:11:32Z</time>
      </trkpt>
      <trkpt lat="44.30937" lon="3.63089">
        <ele>670.33</ele>
        <time>2023-09-15T10:11:56Z</time>
      </trkpt>
      <trkpt lat="44.30918" lon="3.63081">
        <ele>673.33</ele>
        <time>2023-09-15T10:12:24Z</time>
      </trkpt>
      <trkpt lat="44.30901" lon="3.63071">
        <ele>675.33</ele>
        <time>2023-09-15T10:12:45Z</time>
      </trkpt>
      <trkpt lat="44.30884" lon="3.63063">
        <ele>674.33</ele>
        <time>2023-09-15T10:13:09Z</time>
      </trkpt>
      <trkpt lat="44.30867" lon="3.63053">
        <ele>675.33</ele>
        <time>2023-09-15T10:13:29Z</time>
      </trkpt>
      <trkpt lat="44.30846" lon="3.63051">
        <ele>678.33</ele>
        <time>2023-09-15T10:13:53Z</time>
      </trkpt>
      <trkpt lat="44.30858" lon="3.63076">
        <ele>679.33</ele>
        <time>2023-09-15T10:14:17Z</time>
      </trkpt>
      <trkpt lat="44.3087" lon="3.63098">
        <ele>679.33</ele>
        <time>2023-09-15T10:14:45Z</time>
      </trkpt>
      <trkpt lat="44.30886" lon="3.63114">
        <ele>688.33</ele>
        <time>2023-09-15T10:15:18Z</time>
      </trkpt>
      <trkpt lat="44.30902" lon="3.63132">
        <ele>690.33</ele>
        <time>2023-09-15T10:15:46Z</time>
      </trkpt>
      <trkpt lat="44.3091" lon="3.63156">
        <ele>694.33</ele>
        <time>2023-09-15T10:16:10Z</time>
      </trkpt>
      <trkpt lat="44.30919" lon="3.6318">
        <ele>694.33</ele>
        <time>2023-09-15T10:16:38Z</time>
      </trkpt>
      <trkpt lat="44.30925" lon="3.63205">
        <ele>698.33</ele>
        <time>2023-09-15T10:17:02Z</time>
      </trkpt>
      <trkpt lat="44.3093" lon="3.6323">
        <ele>701.33</ele>
        <time>2023-09-15T10:17:26Z</time>
      </trkpt>
      <trkpt lat="44.30933" lon="3.63256">
        <ele>701.33</ele>
        <time>2023-09-15T10:17:46Z</time>
      </trkpt>
      <trkpt lat="44.30941" lon="3.63284">
        <ele>704.33</ele>
        <time>2023-09-15T10:18:14Z</time>
      </trkpt>
      <trkpt lat="44.3094" lon="3.63312">
        <ele>708.33</ele>
        <time>2023-09-15T10:18:38Z</time>
      </trkpt>
      <trkpt lat="44.30948" lon="3.63338">
        <ele>710.33</ele>
        <time>2023-09-15T10:19:02Z</time>
      </trkpt>
      <trkpt lat="44.30956" lon="3.63366">
        <ele>706.33</ele>
        <time>2023-09-15T10:19:26Z</time>
      </trkpt>
      <trkpt lat="44.30974" lon="3.63366">
        <ele>704.33</ele>
        <time>2023-09-15T10:19:54Z</time>
      </trkpt>
      <trkpt lat="44.30964" lon="3.63389">
        <ele>704.33</ele>
        <time>2023-09-15T10:22:30Z</time>
      </trkpt>
      <trkpt lat="44.30951" lon="3.63409">
        <ele>702.33</ele>
        <time>2023-09-15T10:22:54Z</time>
      </trkpt>
      <trkpt lat="44.30936" lon="3.63432">
        <ele>704.33</ele>
        <time>2023-09-15T10:23:18Z</time>
      </trkpt>
      <trkpt lat="44.30923" lon="3.63457">
        <ele>703.33</ele>
        <time>2023-09-15T10:23:38Z</time>
      </trkpt>
      <trkpt lat="44.30915" lon="3.63481">
        <ele>703.33</ele>
        <time>2023-09-15T10:23:58Z</time>
      </trkpt>
      <trkpt lat="44.30905" lon="3.63509">
        <ele>701.33</ele>
        <time>2023-09-15T10:24:18Z</time>
      </trkpt>
      <trkpt lat="44.30897" lon="3.63535">
        <ele>700.33</ele>
        <time>2023-09-15T10:24:38Z</time>
      </trkpt>
      <trkpt lat="44.30891" lon="3.63562">
        <ele>700.33</ele>
        <time>2023-09-15T10:25:02Z</time>
      </trkpt>
      <trkpt lat="44.30878" lon="3.6359">
        <ele>695.33</ele>
        <time>2023-09-15T10:25:22Z</time>
      </trkpt>
      <trkpt lat="44.30862" lon="3.63612">
        <ele>689.33</ele>
        <time>2023-09-15T10:25:42Z</time>
      </trkpt>
      <trkpt lat="44.30845" lon="3.63626">
        <ele>689.33</ele>
        <time>2023-09-15T10:26:02Z</time>
      </trkpt>
      <trkpt lat="44.3083" lon="3.63649">
        <ele>684.33</ele>
        <time>2023-09-15T10:26:22Z</time>
      </trkpt>
      <trkpt lat="44.30816" lon="3.63667">
        <ele>681.33</ele>
        <time>2023-09-15T10:26:38Z</time>
      </trkpt>
      <trkpt lat="44.30801" lon="3.63684">
        <ele>680.33</ele>
        <time>2023-09-15T10:26:58Z</time>
      </trkpt>
      <trkpt lat="44.30789" lon="3.6371">
        <ele>675.33</ele>
        <time>2023-09-15T10:27:22Z</time>
      </trkpt>
      <trkpt lat="44.30777" lon="3.63733">
        <ele>674.33</ele>
        <time>2023-09-15T10:28:10Z</time>
      </trkpt>
      <trkpt lat="44.30767" lon="3.63756">
        <ele>676.33</ele>
        <time>2023-09-15T10:28:34Z</time>
      </trkpt>
      <trkpt lat="44.30759" lon="3.63779">
        <ele>677.33</ele>
        <time>2023-09-15T10:28:54Z</time>
      </trkpt>
      <trkpt lat="44.3075" lon="3.63806">
        <ele>676.33</ele>
        <time>2023-09-15T10:29:14Z</time>
      </trkpt>
      <trkpt lat="44.3074" lon="3.63833">
        <ele>676.33</ele>
        <time>2023-09-15T10:29:34Z</time>
      </trkpt>
      <trkpt lat="44.30728" lon="3.63859">
        <ele>676.33</ele>
        <time>2023-09-15T10:29:54Z</time>
      </trkpt>
      <trkpt lat="44.30714" lon="3.63877">
        <ele>678.33</ele>
        <time>2023-09-15T10:30:10Z</time>
      </trkpt>
      <trkpt lat="44.30698" lon="3.63896">
        <ele>680.33</ele>
        <time>2023-09-15T10:30:30Z</time>
      </trkpt>
      <trkpt lat="44.30686" lon="3.63915">
        <ele>679.33</ele>
        <time>2023-09-15T10:30:46Z</time>
      </trkpt>
      <trkpt lat="44.30675" lon="3.63938">
        <ele>678.33</ele>
        <time>2023-09-15T10:31:06Z</time>
      </trkpt>
      <trkpt lat="44.3066" lon="3.63959">
        <ele>680.33</ele>
        <time>2023-09-15T10:31:30Z</time>
      </trkpt>
      <trkpt lat="44.30646" lon="3.63976">
        <ele>682.33</ele>
        <time>2023-09-15T10:31:50Z</time>
      </trkpt>
      <trkpt lat="44.30639" lon="3.64003">
        <ele>679.33</ele>
        <time>2023-09-15T10:32:14Z</time>
      </trkpt>
      <trkpt lat="44.30643" lon="3.6403">
        <ele>672.33</ele>
        <time>2023-09-15T10:32:30Z</time>
      </trkpt>
      <trkpt lat="44.30649" lon="3.6406">
        <ele>668.33</ele>
        <time>2023-09-15T10:32:54Z</time>
      </trkpt>
      <trkpt lat="44.30649" lon="3.64087">
        <ele>668.33</ele>
        <time>2023-09-15T10:33:10Z</time>
      </trkpt>
      <trkpt lat="44.30647" lon="3.64118">
        <ele>669.33</ele>
        <time>2023-09-15T10:33:30Z</time>
      </trkpt>
      <trkpt lat="44.30635" lon="3.6414">
        <ele>670.33</ele>
        <time>2023-09-15T10:33:50Z</time>
      </trkpt>
      <trkpt lat="44.3062" lon="3.64158">
        <ele>669.33</ele>
        <time>2023-09-15T10:34:18Z</time>
      </trkpt>
      <trkpt lat="44.3061" lon="3.6418">
        <ele>672.33</ele>
        <time>2023-09-15T10:34:38Z</time>
      </trkpt>
      <trkpt lat="44.30617" lon="3.64205">
        <ele>667.33</ele>
        <time>2023-09-15T10:35:02Z</time>
      </trkpt>
      <trkpt lat="44.30623" lon="3.64229">
        <ele>671.33</ele>
        <time>2023-09-15T10:35:34Z</time>
      </trkpt>
      <trkpt lat="44.30619" lon="3.64257">
        <ele>671.33</ele>
        <time>2023-09-15T10:35:54Z</time>
      </trkpt>
      <trkpt lat="44.30622" lon="3.64286">
        <ele>676.33</ele>
        <time>2023-09-15T10:36:18Z</time>
      </trkpt>
      <trkpt lat="44.30627" lon="3.64313">
        <ele>675.33</ele>
        <time>2023-09-15T10:36:38Z</time>
      </trkpt>
      <trkpt lat="44.30635" lon="3.64337">
        <ele>674.33</ele>
        <time>2023-09-15T10:37:02Z</time>
      </trkpt>
      <trkpt lat="44.3064" lon="3.64363">
        <ele>677.33</ele>
        <time>2023-09-15T10:37:26Z</time>
      </trkpt>
      <trkpt lat="44.30643" lon="3.64389">
        <ele>679.33</ele>
        <time>2023-09-15T10:37:50Z</time>
      </trkpt>
      <trkpt lat="44.30639" lon="3.64418">
        <ele>681.33</ele>
        <time>2023-09-15T10:38:18Z</time>
      </trkpt>
      <trkpt lat="44.30629" lon="3.64441">
        <ele>683.33</ele>
        <time>2023-09-15T10:38:38Z</time>
      </trkpt>
      <trkpt lat="44.30617" lon="3.64468">
        <ele>683.33</ele>
        <time>2023-09-15T10:38:58Z</time>
      </trkpt>
      <trkpt lat="44.30611" lon="3.64492">
        <ele>686.33</ele>
        <time>2023-09-15T10:39:18Z</time>
      </trkpt>
      <trkpt lat="44.30602" lon="3.64517">
        <ele>685.33</ele>
        <time>2023-09-15T10:39:46Z</time>
      </trkpt>
      <trkpt lat="44.30601" lon="3.64543">
        <ele>684.33</ele>
        <time>2023-09-15T10:40:06Z</time>
      </trkpt>
      <trkpt lat="44.30592" lon="3.64572">
        <ele>686.33</ele>
        <time>2023-09-15T10:40:30Z</time>
      </trkpt>
      <trkpt lat="44.30576" lon="3.64594">
        <ele>687.33</ele>
        <time>2023-09-15T10:40:50Z</time>
      </trkpt>
      <trkpt lat="44.30564" lon="3.64616">
        <ele>690.33</ele>
        <time>2023-09-15T10:41:10Z</time>
      </trkpt>
      <trkpt lat="44.30551" lon="3.64638">
        <ele>690.33</ele>
        <time>2023-09-15T10:41:34Z</time>
      </trkpt>
      <trkpt lat="44.30537" lon="3.64654">
        <ele>687.33</ele>
        <time>2023-09-15T10:41:54Z</time>
      </trkpt>
      <trkpt lat="44.30519" lon="3.64663">
        <ele>689.33</ele>
        <time>2023-09-15T10:42:14Z</time>
      </trkpt>
      <trkpt lat="44.30506" lon="3.64683">
        <ele>695.33</ele>
        <time>2023-09-15T10:42:50Z</time>
      </trkpt>
      <trkpt lat="44.30507" lon="3.64709">
        <ele>692.33</ele>
        <time>2023-09-15T10:43:06Z</time>
      </trkpt>
      <trkpt lat="44.3051" lon="3.64737">
        <ele>690.33</ele>
        <time>2023-09-15T10:43:30Z</time>
      </trkpt>
      <trkpt lat="44.30517" lon="3.64765">
        <ele>691.33</ele>
        <time>2023-09-15T10:43:54Z</time>
      </trkpt>
      <trkpt lat="44.30513" lon="3.64795">
        <ele>694.33</ele>
        <time>2023-09-15T10:44:18Z</time>
      </trkpt>
      <trkpt lat="44.30506" lon="3.64821">
        <ele>697.33</ele>
        <time>2023-09-15T10:44:43Z</time>
      </trkpt>
      <trkpt lat="44.305" lon="3.64845">
        <ele>701.33</ele>
        <time>2023-09-15T10:45:01Z</time>
      </trkpt>
      <trkpt lat="44.30493" lon="3.64868">
        <ele>700.33</ele>
        <time>2023-09-15T10:45:22Z</time>
      </trkpt>
      <trkpt lat="44.30487" lon="3.64894">
        <ele>704.33</ele>
        <time>2023-09-15T10:45:46Z</time>
      </trkpt>
      <trkpt lat="44.30475" lon="3.64916">
        <ele>707.33</ele>
        <time>2023-09-15T10:46:06Z</time>
      </trkpt>
      <trkpt lat="44.30466" lon="3.64939">
        <ele>709.33</ele>
        <time>2023-09-15T10:46:26Z</time>
      </trkpt>
      <trkpt lat="44.30453" lon="3.64961">
        <ele>709.33</ele>
        <time>2023-09-15T10:46:50Z</time>
      </trkpt>
      <trkpt lat="44.30441" lon="3.64982">
        <ele>712.33</ele>
        <time>2023-09-15T10:47:14Z</time>
      </trkpt>
      <trkpt lat="44.30428" lon="3.65001">
        <ele>713.33</ele>
        <time>2023-09-15T10:47:30Z</time>
      </trkpt>
      <trkpt lat="44.30413" lon="3.65019">
        <ele>713.33</ele>
        <time>2023-09-15T10:47:50Z</time>
      </trkpt>
      <trkpt lat="44.30399" lon="3.65037">
        <ele>709.33</ele>
        <time>2023-09-15T10:48:10Z</time>
      </trkpt>
      <trkpt lat="44.30381" lon="3.65048">
        <ele>707.33</ele>
        <time>2023-09-15T10:48:34Z</time>
      </trkpt>
      <trkpt lat="44.30362" lon="3.65059">
        <ele>707.33</ele>
        <time>2023-09-15T10:48:54Z</time>
      </trkpt>
      <trkpt lat="44.30345" lon="3.65074">
        <ele>705.33</ele>
        <time>2023-09-15T10:49:14Z</time>
      </trkpt>
      <trkpt lat="44.3033" lon="3.65096">
        <ele>706.33</ele>
        <time>2023-09-15T10:49:34Z</time>
      </trkpt>
      <trkpt lat="44.30316" lon="3.65116">
        <ele>708.33</ele>
        <time>2023-09-15T10:49:54Z</time>
      </trkpt>
      <trkpt lat="44.30298" lon="3.65136">
        <ele>710.33</ele>
        <time>2023-09-15T10:50:14Z</time>
      </trkpt>
      <trkpt lat="44.3028" lon="3.65146">
        <ele>714.33</ele>
        <time>2023-09-15T10:50:34Z</time>
      </trkpt>
      <trkpt lat="44.30267" lon="3.6517">
        <ele>714.33</ele>
        <time>2023-09-15T10:50:58Z</time>
      </trkpt>
      <trkpt lat="44.3027" lon="3.65197">
        <ele>716.33</ele>
        <time>2023-09-15T10:51:18Z</time>
      </trkpt>
      <trkpt lat="44.30269" lon="3.65223">
        <ele>715.33</ele>
        <time>2023-09-15T10:51:38Z</time>
      </trkpt>
      <trkpt lat="44.30268" lon="3.65248">
        <ele>717.33</ele>
        <time>2023-09-15T10:51:58Z</time>
      </trkpt>
      <trkpt lat="44.30266" lon="3.65278">
        <ele>720.33</ele>
        <time>2023-09-15T10:52:22Z</time>
      </trkpt>
      <trkpt lat="44.30269" lon="3.65304">
        <ele>719.33</ele>
        <time>2023-09-15T10:52:46Z</time>
      </trkpt>
      <trkpt lat="44.30281" lon="3.65323">
        <ele>722.33</ele>
        <time>2023-09-15T10:53:10Z</time>
      </trkpt>
      <trkpt lat="44.30298" lon="3.65335">
        <ele>725.33</ele>
        <time>2023-09-15T10:53:30Z</time>
      </trkpt>
      <trkpt lat="44.30317" lon="3.6535">
        <ele>719.33</ele>
        <time>2023-09-15T10:53:50Z</time>
      </trkpt>
      <trkpt lat="44.30327" lon="3.65374">
        <ele>715.33</ele>
        <time>2023-09-15T10:54:10Z</time>
      </trkpt>
      <trkpt lat="44.30341" lon="3.65396">
        <ele>713.33</ele>
        <time>2023-09-15T10:54:34Z</time>
      </trkpt>
      <trkpt lat="44.30358" lon="3.65409">
        <ele>714.33</ele>
        <time>2023-09-15T10:54:54Z</time>
      </trkpt>
      <trkpt lat="44.30362" lon="3.65433">
        <ele>710.33</ele>
        <time>2023-09-15T10:55:10Z</time>
      </trkpt>
      <trkpt lat="44.30372" lon="3.6546">
        <ele>710.33</ele>
        <time>2023-09-15T10:55:30Z</time>
      </trkpt>
      <trkpt lat="44.30384" lon="3.65483">
        <ele>709.33</ele>
        <time>2023-09-15T10:55:50Z</time>
      </trkpt>
      <trkpt lat="44.30391" lon="3.65507">
        <ele>707.33</ele>
        <time>2023-09-15T10:56:06Z</time>
      </trkpt>
      <trkpt lat="44.30404" lon="3.65531">
        <ele>708.33</ele>
        <time>2023-09-15T10:56:26Z</time>
      </trkpt>
      <trkpt lat="44.30417" lon="3.65552">
        <ele>701.33</ele>
        <time>2023-09-15T10:56:46Z</time>
      </trkpt>
      <trkpt lat="44.30431" lon="3.6557">
        <ele>704.33</ele>
        <time>2023-09-15T10:57:18Z</time>
      </trkpt>
      <trkpt lat="44.30448" lon="3.65586">
        <ele>702.33</ele>
        <time>2023-09-15T10:57:34Z</time>
      </trkpt>
      <trkpt lat="44.30453" lon="3.65603">
        <ele>695.33</ele>
        <time>2023-09-15T11:44:38Z</time>
      </trkpt>
      <trkpt lat="44.30456" lon="3.65628">
        <ele>695.33</ele>
        <time>2023-09-15T11:45:38Z</time>
      </trkpt>
      <trkpt lat="44.30458" lon="3.65657">
        <ele>693.33</ele>
        <time>2023-09-15T11:46:02Z</time>
      </trkpt>
      <trkpt lat="44.30461" lon="3.65687">
        <ele>690.33</ele>
        <time>2023-09-15T11:46:23Z</time>
      </trkpt>
      <trkpt lat="44.30463" lon="3.65715">
        <ele>690.33</ele>
        <time>2023-09-15T11:46:43Z</time>
      </trkpt>
      <trkpt lat="44.30461" lon="3.6574">
        <ele>689.33</ele>
        <time>2023-09-15T11:46:59Z</time>
      </trkpt>
      <trkpt lat="44.30455" lon="3.65768">
        <ele>685.33</ele>
        <time>2023-09-15T11:47:47Z</time>
      </trkpt>
      <trkpt lat="44.30444" lon="3.65789">
        <ele>685.33</ele>
        <time>2023-09-15T11:48:03Z</time>
      </trkpt>
      <trkpt lat="44.3043" lon="3.65806">
        <ele>684.33</ele>
        <time>2023-09-15T11:48:19Z</time>
      </trkpt>
      <trkpt lat="44.30414" lon="3.65825">
        <ele>684.33</ele>
        <time>2023-09-15T11:48:39Z</time>
      </trkpt>
      <trkpt lat="44.30406" lon="3.65848">
        <ele>683.33</ele>
        <time>2023-09-15T11:48:55Z</time>
      </trkpt>
      <trkpt lat="44.30395" lon="3.65873">
        <ele>681.33</ele>
        <time>2023-09-15T11:49:11Z</time>
      </trkpt>
      <trkpt lat="44.3038" lon="3.65893">
        <ele>676.33</ele>
        <time>2023-09-15T11:49:27Z</time>
      </trkpt>
      <trkpt lat="44.30369" lon="3.6592">
        <ele>674.33</ele>
        <time>2023-09-15T11:49:51Z</time>
      </trkpt>
      <trkpt lat="44.3036" lon="3.65942">
        <ele>674.33</ele>
        <time>2023-09-15T11:50:08Z</time>
      </trkpt>
      <trkpt lat="44.30353" lon="3.6597">
        <ele>670.33</ele>
        <time>2023-09-15T11:50:29Z</time>
      </trkpt>
      <trkpt lat="44.3034" lon="3.65992">
        <ele>666.33</ele>
        <time>2023-09-15T11:50:45Z</time>
      </trkpt>
      <trkpt lat="44.30339" lon="3.66021">
        <ele>665.33</ele>
        <time>2023-09-15T11:51:06Z</time>
      </trkpt>
      <trkpt lat="44.30328" lon="3.66042">
        <ele>660.33</ele>
        <time>2023-09-15T11:51:27Z</time>
      </trkpt>
      <trkpt lat="44.30318" lon="3.66063">
        <ele>659.33</ele>
        <time>2023-09-15T11:51:40Z</time>
      </trkpt>
      <trkpt lat="44.30306" lon="3.66082">
        <ele>655.33</ele>
        <time>2023-09-15T11:51:52Z</time>
      </trkpt>
      <trkpt lat="44.30299" lon="3.66108">
        <ele>654.33</ele>
        <time>2023-09-15T11:52:12Z</time>
      </trkpt>
      <trkpt lat="44.30294" lon="3.66133">
        <ele>649.33</ele>
        <time>2023-09-15T11:52:32Z</time>
      </trkpt>
      <trkpt lat="44.30281" lon="3.66151">
        <ele>647.33</ele>
        <time>2023-09-15T11:52:48Z</time>
      </trkpt>
      <trkpt lat="44.30271" lon="3.66177">
        <ele>642.33</ele>
        <time>2023-09-15T11:53:04Z</time>
      </trkpt>
      <trkpt lat="44.30259" lon="3.66201">
        <ele>638.33</ele>
        <time>2023-09-15T11:53:24Z</time>
      </trkpt>
      <trkpt lat="44.30251" lon="3.66225">
        <ele>635.33</ele>
        <time>2023-09-15T11:53:44Z</time>
      </trkpt>
      <trkpt lat="44.30233" lon="3.66242">
        <ele>631.33</ele>
        <time>2023-09-15T11:54:04Z</time>
      </trkpt>
      <trkpt lat="44.30221" lon="3.66265">
        <ele>628.33</ele>
        <time>2023-09-15T11:54:24Z</time>
      </trkpt>
      <trkpt lat="44.30209" lon="3.66286">
        <ele>624.33</ele>
        <time>2023-09-15T11:54:40Z</time>
      </trkpt>
      <trkpt lat="44.30222" lon="3.66304">
        <ele>617.33</ele>
        <time>2023-09-15T11:55:04Z</time>
      </trkpt>
      <trkpt lat="44.30238" lon="3.66292">
        <ele>615.33</ele>
        <time>2023-09-15T11:55:20Z</time>
      </trkpt>
      <trkpt lat="44.30258" lon="3.66293">
        <ele>613.33</ele>
        <time>2023-09-15T11:55:44Z</time>
      </trkpt>
      <trkpt lat="44.30248" lon="3.66315">
        <ele>612.33</ele>
        <time>2023-09-15T11:56:00Z</time>
      </trkpt>
      <trkpt lat="44.30232" lon="3.66335">
        <ele>613.33</ele>
        <time>2023-09-15T11:56:16Z</time>
      </trkpt>
      <trkpt lat="44.30215" lon="3.6635">
        <ele>613.33</ele>
        <time>2023-09-15T11:56:32Z</time>
      </trkpt>
      <trkpt lat="44.30197" lon="3.66356">
        <ele>613.33</ele>
        <time>2023-09-15T11:56:48Z</time>
      </trkpt>
      <trkpt lat="44.30177" lon="3.66355">
        <ele>613.33</ele>
        <time>2023-09-15T11:57:04Z</time>
      </trkpt>
      <trkpt lat="44.30157" lon="3.66348">
        <ele>612.33</ele>
        <time>2023-09-15T11:57:20Z</time>
      </trkpt>
      <trkpt lat="44.30138" lon="3.66342">
        <ele>612.33</ele>
        <time>2023-09-15T11:57:36Z</time>
      </trkpt>
      <trkpt lat="44.30126" lon="3.66364">
        <ele>613.33</ele>
        <time>2023-09-15T11:58:04Z</time>
      </trkpt>
      <trkpt lat="44.30114" lon="3.66385">
        <ele>613.33</ele>
        <time>2023-09-15T11:58:20Z</time>
      </trkpt>
      <trkpt lat="44.30095" lon="3.66381">
        <ele>616.33</ele>
        <time>2023-09-15T11:58:36Z</time>
      </trkpt>
      <trkpt lat="44.30076" lon="3.66375">
        <ele>618.33</ele>
        <time>2023-09-15T11:58:52Z</time>
      </trkpt>
      <trkpt lat="44.30054" lon="3.66376">
        <ele>618.33</ele>
        <time>2023-09-15T11:59:12Z</time>
      </trkpt>
      <trkpt lat="44.30034" lon="3.66382">
        <ele>617.33</ele>
        <time>2023-09-15T12:00:52Z</time>
      </trkpt>
      <trkpt lat="44.30015" lon="3.66393">
        <ele>620.33</ele>
        <time>2023-09-15T12:01:08Z</time>
      </trkpt>
      <trkpt lat="44.29996" lon="3.66404">
        <ele>620.33</ele>
        <time>2023-09-15T12:01:24Z</time>
      </trkpt>
      <trkpt lat="44.29979" lon="3.66418">
        <ele>621.33</ele>
        <time>2023-09-15T12:01:40Z</time>
      </trkpt>
      <trkpt lat="44.29959" lon="3.66427">
        <ele>618.33</ele>
        <time>2023-09-15T12:02:00Z</time>
      </trkpt>
      <trkpt lat="44.29942" lon="3.66445">
        <ele>618.33</ele>
        <time>2023-09-15T12:02:16Z</time>
      </trkpt>
      <trkpt lat="44.29925" lon="3.66459">
        <ele>618.33</ele>
        <time>2023-09-15T12:02:32Z</time>
      </trkpt>
      <trkpt lat="44.29909" lon="3.66472">
        <ele>618.33</ele>
        <time>2023-09-15T12:02:48Z</time>
      </trkpt>
      <trkpt lat="44.2989" lon="3.6648">
        <ele>620.33</ele>
        <time>2023-09-15T12:03:04Z</time>
      </trkpt>
      <trkpt lat="44.29869" lon="3.66488">
        <ele>621.33</ele>
        <time>2023-09-15T12:03:20Z</time>
      </trkpt>
      <trkpt lat="44.29849" lon="3.66496">
        <ele>618.33</ele>
        <time>2023-09-15T12:03:56Z</time>
      </trkpt>
      <trkpt lat="44.29833" lon="3.66514">
        <ele>617.33</ele>
        <time>2023-09-15T12:04:12Z</time>
      </trkpt>
      <trkpt lat="44.29816" lon="3.6653">
        <ele>616.33</ele>
        <time>2023-09-15T12:04:36Z</time>
      </trkpt>
      <trkpt lat="44.29804" lon="3.66551">
        <ele>618.33</ele>
        <time>2023-09-15T12:04:52Z</time>
      </trkpt>
      <trkpt lat="44.29795" lon="3.66576">
        <ele>619.33</ele>
        <time>2023-09-15T12:05:08Z</time>
      </trkpt>
      <trkpt lat="44.29787" lon="3.66603">
        <ele>622.33</ele>
        <time>2023-09-15T12:05:24Z</time>
      </trkpt>
      <trkpt lat="44.29781" lon="3.66631">
        <ele>623.33</ele>
        <time>2023-09-15T12:05:44Z</time>
      </trkpt>
      <trkpt lat="44.29775" lon="3.66657">
        <ele>621.33</ele>
        <time>2023-09-15T12:06:00Z</time>
      </trkpt>
      <trkpt lat="44.29774" lon="3.66685">
        <ele>622.33</ele>
        <time>2023-09-15T12:06:16Z</time>
      </trkpt>
      <trkpt lat="44.29774" lon="3.66713">
        <ele>622.33</ele>
        <time>2023-09-15T12:06:32Z</time>
      </trkpt>
      <trkpt lat="44.29771" lon="3.66741">
        <ele>623.33</ele>
        <time>2023-09-15T12:06:48Z</time>
      </trkpt>
      <trkpt lat="44.29769" lon="3.66768">
        <ele>620.33</ele>
        <time>2023-09-15T12:07:04Z</time>
      </trkpt>
      <trkpt lat="44.29766" lon="3.66793">
        <ele>621.33</ele>
        <time>2023-09-15T12:07:20Z</time>
      </trkpt>
      <trkpt lat="44.29763" lon="3.66819">
        <ele>619.33</ele>
        <time>2023-09-15T12:07:36Z</time>
      </trkpt>
      <trkpt lat="44.29763" lon="3.66848">
        <ele>621.33</ele>
        <time>2023-09-15T12:07:52Z</time>
      </trkpt>
      <trkpt lat="44.2976" lon="3.66874">
        <ele>622.33</ele>
        <time>2023-09-15T12:08:08Z</time>
      </trkpt>
      <trkpt lat="44.29762" lon="3.66905">
        <ele>619.33</ele>
        <time>2023-09-15T12:08:28Z</time>
      </trkpt>
      <trkpt lat="44.29765" lon="3.66933">
        <ele>616.33</ele>
        <time>2023-09-15T12:08:44Z</time>
      </trkpt>
      <trkpt lat="44.29766" lon="3.66963">
        <ele>615.33</ele>
        <time>2023-09-15T12:09:04Z</time>
      </trkpt>
      <trkpt lat="44.29772" lon="3.6699">
        <ele>617.33</ele>
        <time>2023-09-15T12:09:20Z</time>
      </trkpt>
      <trkpt lat="44.29779" lon="3.67018">
        <ele>616.33</ele>
        <time>2023-09-15T12:09:40Z</time>
      </trkpt>
      <trkpt lat="44.29786" lon="3.67047">
        <ele>619.33</ele>
        <time>2023-09-15T12:10:00Z</time>
      </trkpt>
      <trkpt lat="44.29795" lon="3.67075">
        <ele>620.33</ele>
        <time>2023-09-15T12:10:20Z</time>
      </trkpt>
      <trkpt lat="44.29804" lon="3.67104">
        <ele>620.33</ele>
        <time>2023-09-15T12:10:41Z</time>
      </trkpt>
      <trkpt lat="44.29816" lon="3.67127">
        <ele>624.33</ele>
        <time>2023-09-15T12:10:58Z</time>
      </trkpt>
      <trkpt lat="44.29832" lon="3.67148">
        <ele>623.33</ele>
        <time>2023-09-15T12:11:19Z</time>
      </trkpt>
      <trkpt lat="44.29847" lon="3.67167">
        <ele>624.33</ele>
        <time>2023-09-15T12:11:59Z</time>
      </trkpt>
      <trkpt lat="44.29864" lon="3.67185">
        <ele>627.33</ele>
        <time>2023-09-15T12:12:15Z</time>
      </trkpt>
      <trkpt lat="44.29882" lon="3.67201">
        <ele>629.33</ele>
        <time>2023-09-15T12:12:31Z</time>
      </trkpt>
      <trkpt lat="44.29898" lon="3.67216">
        <ele>632.33</ele>
        <time>2023-09-15T12:12:47Z</time>
      </trkpt>
      <trkpt lat="44.29913" lon="3.67232">
        <ele>631.33</ele>
        <time>2023-09-15T12:13:07Z</time>
      </trkpt>
      <trkpt lat="44.29925" lon="3.67255">
        <ele>630.33</ele>
        <time>2023-09-15T12:13:23Z</time>
      </trkpt>
      <trkpt lat="44.29936" lon="3.67279">
        <ele>628.33</ele>
        <time>2023-09-15T12:13:43Z</time>
      </trkpt>
      <trkpt lat="44.29942" lon="3.67305">
        <ele>628.33</ele>
        <time>2023-09-15T12:14:03Z</time>
      </trkpt>
      <trkpt lat="44.2994" lon="3.67336">
        <ele>630.33</ele>
        <time>2023-09-15T12:14:23Z</time>
      </trkpt>
      <trkpt lat="44.29937" lon="3.67364">
        <ele>630.33</ele>
        <time>2023-09-15T12:14:39Z</time>
      </trkpt>
      <trkpt lat="44.29932" lon="3.67392">
        <ele>632.33</ele>
        <time>2023-09-15T12:14:59Z</time>
      </trkpt>
      <trkpt lat="44.29929" lon="3.67423">
        <ele>633.33</ele>
        <time>2023-09-15T12:15:19Z</time>
      </trkpt>
      <trkpt lat="44.29929" lon="3.67451">
        <ele>638.33</ele>
        <time>2023-09-15T12:15:39Z</time>
      </trkpt>
      <trkpt lat="44.29931" lon="3.67483">
        <ele>635.33</ele>
        <time>2023-09-15T12:15:55Z</time>
      </trkpt>
      <trkpt lat="44.29936" lon="3.67513">
        <ele>635.33</ele>
        <time>2023-09-15T12:16:12Z</time>
      </trkpt>
      <trkpt lat="44.29939" lon="3.67538">
        <ele>636.33</ele>
        <time>2023-09-15T12:16:28Z</time>
      </trkpt>
      <trkpt lat="44.29945" lon="3.67565">
        <ele>634.33</ele>
        <time>2023-09-15T12:16:44Z</time>
      </trkpt>
      <trkpt lat="44.29955" lon="3.67592">
        <ele>635.33</ele>
        <time>2023-09-15T12:17:04Z</time>
      </trkpt>
      <trkpt lat="44.29964" lon="3.67619">
        <ele>633.33</ele>
        <time>2023-09-15T12:17:20Z</time>
      </trkpt>
      <trkpt lat="44.29974" lon="3.67644">
        <ele>632.33</ele>
        <time>2023-09-15T12:17:36Z</time>
      </trkpt>
      <trkpt lat="44.29986" lon="3.67662">
        <ele>632.33</ele>
        <time>2023-09-15T12:17:52Z</time>
      </trkpt>
      <trkpt lat="44.29999" lon="3.67683">
        <ele>632.33</ele>
        <time>2023-09-15T12:18:08Z</time>
      </trkpt>
      <trkpt lat="44.30012" lon="3.67708">
        <ele>632.33</ele>
        <time>2023-09-15T12:18:28Z</time>
      </trkpt>
      <trkpt lat="44.3002" lon="3.67735">
        <ele>631.33</ele>
        <time>2023-09-15T12:18:44Z</time>
      </trkpt>
      <trkpt lat="44.30026" lon="3.67758">
        <ele>634.33</ele>
        <time>2023-09-15T12:19:00Z</time>
      </trkpt>
      <trkpt lat="44.3003" lon="3.67789">
        <ele>634.33</ele>
        <time>2023-09-15T12:19:20Z</time>
      </trkpt>
      <trkpt lat="44.3003" lon="3.67819">
        <ele>635.33</ele>
        <time>2023-09-15T12:19:40Z</time>
      </trkpt>
      <trkpt lat="44.30022" lon="3.67844">
        <ele>633.33</ele>
        <time>2023-09-15T12:19:56Z</time>
      </trkpt>
      <trkpt lat="44.30011" lon="3.67864">
        <ele>634.33</ele>
        <time>2023-09-15T12:20:12Z</time>
      </trkpt>
      <trkpt lat="44.29997" lon="3.67886">
        <ele>636.33</ele>
        <time>2023-09-15T12:20:32Z</time>
      </trkpt>
      <trkpt lat="44.29982" lon="3.67902">
        <ele>634.33</ele>
        <time>2023-09-15T12:20:48Z</time>
      </trkpt>
      <trkpt lat="44.2997" lon="3.67925">
        <ele>635.33</ele>
        <time>2023-09-15T12:21:05Z</time>
      </trkpt>
      <trkpt lat="44.2996" lon="3.67949">
        <ele>634.33</ele>
        <time>2023-09-15T12:21:21Z</time>
      </trkpt>
      <trkpt lat="44.29949" lon="3.67973">
        <ele>637.33</ele>
        <time>2023-09-15T12:21:37Z</time>
      </trkpt>
      <trkpt lat="44.29934" lon="3.67991">
        <ele>641.33</ele>
        <time>2023-09-15T12:21:54Z</time>
      </trkpt>
      <trkpt lat="44.29923" lon="3.68012">
        <ele>641.33</ele>
        <time>2023-09-15T12:22:38Z</time>
      </trkpt>
      <trkpt lat="44.29906" lon="3.68089">
        <ele>623.33</ele>
        <time>2023-09-15T12:23:25Z</time>
      </trkpt>
      <trkpt lat="44.29897" lon="3.68114">
        <ele>630.33</ele>
        <time>2023-09-15T12:23:57Z</time>
      </trkpt>
      <trkpt lat="44.29892" lon="3.68139">
        <ele>631.33</ele>
        <time>2023-09-15T12:24:13Z</time>
      </trkpt>
      <trkpt lat="44.29886" lon="3.68166">
        <ele>632.33</ele>
        <time>2023-09-15T12:24:29Z</time>
      </trkpt>
      <trkpt lat="44.29879" lon="3.6819">
        <ele>635.33</ele>
        <time>2023-09-15T12:24:45Z</time>
      </trkpt>
      <trkpt lat="44.29869" lon="3.68213">
        <ele>635.33</ele>
        <time>2023-09-15T12:25:01Z</time>
      </trkpt>
      <trkpt lat="44.29858" lon="3.68235">
        <ele>636.33</ele>
        <time>2023-09-15T12:25:17Z</time>
      </trkpt>
      <trkpt lat="44.29847" lon="3.6826">
        <ele>638.33</ele>
        <time>2023-09-15T12:25:37Z</time>
      </trkpt>
      <trkpt lat="44.29837" lon="3.68281">
        <ele>638.33</ele>
        <time>2023-09-15T12:25:53Z</time>
      </trkpt>
      <trkpt lat="44.29821" lon="3.683">
        <ele>641.33</ele>
        <time>2023-09-15T12:26:29Z</time>
      </trkpt>
      <trkpt lat="44.29813" lon="3.68324">
        <ele>642.33</ele>
        <time>2023-09-15T12:26:45Z</time>
      </trkpt>
      <trkpt lat="44.29797" lon="3.6834">
        <ele>640.33</ele>
        <time>2023-09-15T12:27:01Z</time>
      </trkpt>
      <trkpt lat="44.29781" lon="3.68353">
        <ele>640.33</ele>
        <time>2023-09-15T12:27:17Z</time>
      </trkpt>
      <trkpt lat="44.29764" lon="3.68363">
        <ele>641.33</ele>
        <time>2023-09-15T12:27:33Z</time>
      </trkpt>
      <trkpt lat="44.29745" lon="3.68368">
        <ele>642.33</ele>
        <time>2023-09-15T12:27:49Z</time>
      </trkpt>
      <trkpt lat="44.29726" lon="3.6837">
        <ele>645.33</ele>
        <time>2023-09-15T12:28:09Z</time>
      </trkpt>
      <trkpt lat="44.29704" lon="3.68364">
        <ele>646.33</ele>
        <time>2023-09-15T12:28:25Z</time>
      </trkpt>
      <trkpt lat="44.29684" lon="3.68368">
        <ele>645.33</ele>
        <time>2023-09-15T12:28:41Z</time>
      </trkpt>
      <trkpt lat="44.29664" lon="3.68377">
        <ele>646.33</ele>
        <time>2023-09-15T12:28:57Z</time>
      </trkpt>
      <trkpt lat="44.29644" lon="3.68387">
        <ele>647.33</ele>
        <time>2023-09-15T12:29:17Z</time>
      </trkpt>
      <trkpt lat="44.29622" lon="3.68398">
        <ele>649.33</ele>
        <time>2023-09-15T12:29:37Z</time>
      </trkpt>
      <trkpt lat="44.29601" lon="3.68391">
        <ele>648.33</ele>
        <time>2023-09-15T12:29:53Z</time>
      </trkpt>
      <trkpt lat="44.29581" lon="3.68385">
        <ele>651.33</ele>
        <time>2023-09-15T12:30:13Z</time>
      </trkpt>
      <trkpt lat="44.29561" lon="3.68376">
        <ele>656.33</ele>
        <time>2023-09-15T12:30:33Z</time>
      </trkpt>
      <trkpt lat="44.29544" lon="3.68366">
        <ele>655.33</ele>
        <time>2023-09-15T12:30:49Z</time>
      </trkpt>
      <trkpt lat="44.29527" lon="3.68357">
        <ele>657.33</ele>
        <time>2023-09-15T12:31:05Z</time>
      </trkpt>
      <trkpt lat="44.2945" lon="3.6839">
        <ele>610.33</ele>
        <time>2023-09-15T12:32:18Z</time>
      </trkpt>
      <trkpt lat="44.29431" lon="3.68399">
        <ele>624.33</ele>
        <time>2023-09-15T12:32:31Z</time>
      </trkpt>
      <trkpt lat="44.29416" lon="3.68417">
        <ele>634.33</ele>
        <time>2023-09-15T12:32:47Z</time>
      </trkpt>
      <trkpt lat="44.29399" lon="3.68432">
        <ele>639.33</ele>
        <time>2023-09-15T12:33:03Z</time>
      </trkpt>
      <trkpt lat="44.29379" lon="3.68445">
        <ele>644.33</ele>
        <time>2023-09-15T12:33:23Z</time>
      </trkpt>
      <trkpt lat="44.2936" lon="3.68454">
        <ele>648.33</ele>
        <time>2023-09-15T12:33:39Z</time>
      </trkpt>
      <trkpt lat="44.29337" lon="3.68463">
        <ele>652.33</ele>
        <time>2023-09-15T12:33:59Z</time>
      </trkpt>
      <trkpt lat="44.29317" lon="3.6847">
        <ele>653.33</ele>
        <time>2023-09-15T12:34:15Z</time>
      </trkpt>
      <trkpt lat="44.29299" lon="3.68474">
        <ele>654.33</ele>
        <time>2023-09-15T12:34:31Z</time>
      </trkpt>
      <trkpt lat="44.29278" lon="3.68481">
        <ele>655.33</ele>
        <time>2023-09-15T12:34:48Z</time>
      </trkpt>
      <trkpt lat="44.29261" lon="3.68492">
        <ele>655.33</ele>
        <time>2023-09-15T12:35:04Z</time>
      </trkpt>
      <trkpt lat="44.29249" lon="3.68517">
        <ele>655.33</ele>
        <time>2023-09-15T12:35:21Z</time>
      </trkpt>
      <trkpt lat="44.29238" lon="3.68541">
        <ele>656.33</ele>
        <time>2023-09-15T12:35:37Z</time>
      </trkpt>
      <trkpt lat="44.29232" lon="3.68569">
        <ele>655.33</ele>
        <time>2023-09-15T12:35:53Z</time>
      </trkpt>
      <trkpt lat="44.29229" lon="3.68597">
        <ele>655.33</ele>
        <time>2023-09-15T12:36:09Z</time>
      </trkpt>
      <trkpt lat="44.29225" lon="3.68622">
        <ele>658.33</ele>
        <time>2023-09-15T12:36:25Z</time>
      </trkpt>
      <trkpt lat="44.2922" lon="3.68655">
        <ele>659.33</ele>
        <time>2023-09-15T12:36:45Z</time>
      </trkpt>
      <trkpt lat="44.2921" lon="3.68682">
        <ele>662.33</ele>
        <time>2023-09-15T12:37:05Z</time>
      </trkpt>
      <trkpt lat="44.29198" lon="3.68701">
        <ele>660.33</ele>
        <time>2023-09-15T12:37:21Z</time>
      </trkpt>
      <trkpt lat="44.29181" lon="3.68721">
        <ele>660.33</ele>
        <time>2023-09-15T12:37:41Z</time>
      </trkpt>
      <trkpt lat="44.29166" lon="3.68736">
        <ele>661.33</ele>
        <time>2023-09-15T12:37:57Z</time>
      </trkpt>
      <trkpt lat="44.29147" lon="3.68749">
        <ele>661.33</ele>
        <time>2023-09-15T12:38:13Z</time>
      </trkpt>
      <trkpt lat="44.2913" lon="3.68764">
        <ele>662.33</ele>
        <time>2023-09-15T12:38:33Z</time>
      </trkpt>
      <trkpt lat="44.29109" lon="3.6877">
        <ele>663.33</ele>
        <time>2023-09-15T12:38:49Z</time>
      </trkpt>
      <trkpt lat="44.29089" lon="3.68783">
        <ele>664.33</ele>
        <time>2023-09-15T12:39:09Z</time>
      </trkpt>
      <trkpt lat="44.2907" lon="3.6879">
        <ele>663.33</ele>
        <time>2023-09-15T12:39:25Z</time>
      </trkpt>
      <trkpt lat="44.2905" lon="3.68796">
        <ele>663.33</ele>
        <time>2023-09-15T12:39:41Z</time>
      </trkpt>
      <trkpt lat="44.2903" lon="3.68806">
        <ele>665.33</ele>
        <time>2023-09-15T12:40:01Z</time>
      </trkpt>
      <trkpt lat="44.29012" lon="3.68818">
        <ele>665.33</ele>
        <time>2023-09-15T12:40:21Z</time>
      </trkpt>
      <trkpt lat="44.28999" lon="3.68838">
        <ele>666.33</ele>
        <time>2023-09-15T12:41:09Z</time>
      </trkpt>
      <trkpt lat="44.2899" lon="3.68862">
        <ele>665.33</ele>
        <time>2023-09-15T12:41:25Z</time>
      </trkpt>
      <trkpt lat="44.28977" lon="3.68885">
        <ele>667.33</ele>
        <time>2023-09-15T12:41:41Z</time>
      </trkpt>
      <trkpt lat="44.28962" lon="3.68911">
        <ele>670.33</ele>
        <time>2023-09-15T12:42:01Z</time>
      </trkpt>
      <trkpt lat="44.2895" lon="3.68931">
        <ele>671.33</ele>
        <time>2023-09-15T12:42:17Z</time>
      </trkpt>
      <trkpt lat="44.28933" lon="3.68947">
        <ele>671.33</ele>
        <time>2023-09-15T12:42:33Z</time>
      </trkpt>
      <trkpt lat="44.28917" lon="3.68959">
        <ele>671.33</ele>
        <time>2023-09-15T12:42:49Z</time>
      </trkpt>
      <trkpt lat="44.28897" lon="3.68964">
        <ele>670.33</ele>
        <time>2023-09-15T12:43:05Z</time>
      </trkpt>
      <trkpt lat="44.28879" lon="3.68958">
        <ele>668.33</ele>
        <time>2023-09-15T12:43:21Z</time>
      </trkpt>
      <trkpt lat="44.28861" lon="3.68951">
        <ele>669.33</ele>
        <time>2023-09-15T12:43:37Z</time>
      </trkpt>
      <trkpt lat="44.28839" lon="3.68942">
        <ele>668.33</ele>
        <time>2023-09-15T12:43:53Z</time>
      </trkpt>
      <trkpt lat="44.28821" lon="3.68932">
        <ele>667.33</ele>
        <time>2023-09-15T12:44:09Z</time>
      </trkpt>
      <trkpt lat="44.28799" lon="3.68923">
        <ele>665.33</ele>
        <time>2023-09-15T12:44:25Z</time>
      </trkpt>
      <trkpt lat="44.28779" lon="3.68921">
        <ele>666.33</ele>
        <time>2023-09-15T12:44:41Z</time>
      </trkpt>
      <trkpt lat="44.28761" lon="3.68931">
        <ele>665.33</ele>
        <time>2023-09-15T12:44:57Z</time>
      </trkpt>
      <trkpt lat="44.28741" lon="3.68937">
        <ele>663.33</ele>
        <time>2023-09-15T12:45:41Z</time>
      </trkpt>
      <trkpt lat="44.28722" lon="3.68945">
        <ele>661.33</ele>
        <time>2023-09-15T12:46:05Z</time>
      </trkpt>
      <trkpt lat="44.28703" lon="3.6896">
        <ele>661.33</ele>
        <time>2023-09-15T12:46:21Z</time>
      </trkpt>
      <trkpt lat="44.28684" lon="3.6897">
        <ele>664.33</ele>
        <time>2023-09-15T12:46:37Z</time>
      </trkpt>
      <trkpt lat="44.28668" lon="3.68984">
        <ele>664.33</ele>
        <time>2023-09-15T12:46:53Z</time>
      </trkpt>
      <trkpt lat="44.28651" lon="3.69">
        <ele>664.33</ele>
        <time>2023-09-15T12:47:09Z</time>
      </trkpt>
      <trkpt lat="44.28634" lon="3.69013">
        <ele>665.33</ele>
        <time>2023-09-15T12:47:25Z</time>
      </trkpt>
      <trkpt lat="44.28617" lon="3.69027">
        <ele>664.33</ele>
        <time>2023-09-15T12:47:41Z</time>
      </trkpt>
      <trkpt lat="44.286" lon="3.69042">
        <ele>664.33</ele>
        <time>2023-09-15T12:47:57Z</time>
      </trkpt>
      <trkpt lat="44.28583" lon="3.69053">
        <ele>663.33</ele>
        <time>2023-09-15T12:48:17Z</time>
      </trkpt>
      <trkpt lat="44.28568" lon="3.69076">
        <ele>664.33</ele>
        <time>2023-09-15T12:48:37Z</time>
      </trkpt>
      <trkpt lat="44.28556" lon="3.69098">
        <ele>664.33</ele>
        <time>2023-09-15T12:48:53Z</time>
      </trkpt>
      <trkpt lat="44.28544" lon="3.69121">
        <ele>664.33</ele>
        <time>2023-09-15T12:49:09Z</time>
      </trkpt>
      <trkpt lat="44.28536" lon="3.6915">
        <ele>665.33</ele>
        <time>2023-09-15T12:49:25Z</time>
      </trkpt>
      <trkpt lat="44.28529" lon="3.69176">
        <ele>664.33</ele>
        <time>2023-09-15T12:49:41Z</time>
      </trkpt>
      <trkpt lat="44.28515" lon="3.69197">
        <ele>667.33</ele>
        <time>2023-09-15T12:49:57Z</time>
      </trkpt>
      <trkpt lat="44.28508" lon="3.69226">
        <ele>669.33</ele>
        <time>2023-09-15T12:50:17Z</time>
      </trkpt>
      <trkpt lat="44.28494" lon="3.69244">
        <ele>670.33</ele>
        <time>2023-09-15T12:50:33Z</time>
      </trkpt>
      <trkpt lat="44.28478" lon="3.69259">
        <ele>669.33</ele>
        <time>2023-09-15T12:50:49Z</time>
      </trkpt>
      <trkpt lat="44.28466" lon="3.69279">
        <ele>670.33</ele>
        <time>2023-09-15T12:51:05Z</time>
      </trkpt>
      <trkpt lat="44.2845" lon="3.69296">
        <ele>670.33</ele>
        <time>2023-09-15T12:51:21Z</time>
      </trkpt>
      <trkpt lat="44.28431" lon="3.69315">
        <ele>674.33</ele>
        <time>2023-09-15T12:52:13Z</time>
      </trkpt>
      <trkpt lat="44.28415" lon="3.69328">
        <ele>669.33</ele>
        <time>2023-09-15T12:52:29Z</time>
      </trkpt>
      <trkpt lat="44.28397" lon="3.69336">
        <ele>668.33</ele>
        <time>2023-09-15T12:52:49Z</time>
      </trkpt>
      <trkpt lat="44.28381" lon="3.69354">
        <ele>667.33</ele>
        <time>2023-09-15T12:53:05Z</time>
      </trkpt>
      <trkpt lat="44.28367" lon="3.69375">
        <ele>670.33</ele>
        <time>2023-09-15T12:53:21Z</time>
      </trkpt>
      <trkpt lat="44.28349" lon="3.69392">
        <ele>668.33</ele>
        <time>2023-09-15T12:53:37Z</time>
      </trkpt>
      <trkpt lat="44.28333" lon="3.69408">
        <ele>668.33</ele>
        <time>2023-09-15T12:53:53Z</time>
      </trkpt>
      <trkpt lat="44.28316" lon="3.69422">
        <ele>669.33</ele>
        <time>2023-09-15T12:54:09Z</time>
      </trkpt>
      <trkpt lat="44.283" lon="3.69436">
        <ele>668.33</ele>
        <time>2023-09-15T12:54:25Z</time>
      </trkpt>
      <trkpt lat="44.28284" lon="3.6945">
        <ele>672.33</ele>
        <time>2023-09-15T12:54:41Z</time>
      </trkpt>
      <trkpt lat="44.28265" lon="3.69468">
        <ele>671.33</ele>
        <time>2023-09-15T12:54:58Z</time>
      </trkpt>
      <trkpt lat="44.28254" lon="3.69487">
        <ele>670.33</ele>
        <time>2023-09-15T12:55:12Z</time>
      </trkpt>
      <trkpt lat="44.28248" lon="3.69514">
        <ele>671.33</ele>
        <time>2023-09-15T12:55:28Z</time>
      </trkpt>
      <trkpt lat="44.28242" lon="3.69538">
        <ele>667.33</ele>
        <time>2023-09-15T12:55:41Z</time>
      </trkpt>
      <trkpt lat="44.28233" lon="3.69567">
        <ele>667.33</ele>
        <time>2023-09-15T12:56:07Z</time>
      </trkpt>
      <trkpt lat="44.28223" lon="3.69593">
        <ele>669.33</ele>
        <time>2023-09-15T12:56:23Z</time>
      </trkpt>
      <trkpt lat="44.28212" lon="3.69614">
        <ele>669.33</ele>
        <time>2023-09-15T12:56:39Z</time>
      </trkpt>
      <trkpt lat="44.28196" lon="3.69632">
        <ele>669.33</ele>
        <time>2023-09-15T12:56:55Z</time>
      </trkpt>
      <trkpt lat="44.28179" lon="3.69644">
        <ele>671.33</ele>
        <time>2023-09-15T12:57:11Z</time>
      </trkpt>
      <trkpt lat="44.28161" lon="3.6966">
        <ele>668.33</ele>
        <time>2023-09-15T12:57:55Z</time>
      </trkpt>
      <trkpt lat="44.28142" lon="3.69661">
        <ele>668.33</ele>
        <time>2023-09-15T12:58:11Z</time>
      </trkpt>
      <trkpt lat="44.28122" lon="3.69661">
        <ele>668.33</ele>
        <time>2023-09-15T12:58:27Z</time>
      </trkpt>
      <trkpt lat="44.28102" lon="3.69659">
        <ele>666.33</ele>
        <time>2023-09-15T12:58:43Z</time>
      </trkpt>
      <trkpt lat="44.28082" lon="3.69663">
        <ele>669.33</ele>
        <time>2023-09-15T12:59:15Z</time>
      </trkpt>
      <trkpt lat="44.28062" lon="3.69675">
        <ele>671.33</ele>
        <time>2023-09-15T12:59:31Z</time>
      </trkpt>
      <trkpt lat="44.28044" lon="3.69684">
        <ele>674.33</ele>
        <time>2023-09-15T12:59:47Z</time>
      </trkpt>
      <trkpt lat="44.28028" lon="3.69696">
        <ele>676.33</ele>
        <time>2023-09-15T12:59:59Z</time>
      </trkpt>
      <trkpt lat="44.28011" lon="3.69717">
        <ele>678.33</ele>
        <time>2023-09-15T13:00:19Z</time>
      </trkpt>
      <trkpt lat="44.27998" lon="3.69741">
        <ele>672.33</ele>
        <time>2023-09-15T13:00:59Z</time>
      </trkpt>
      <trkpt lat="44.2799" lon="3.6977">
        <ele>669.33</ele>
        <time>2023-09-15T13:01:31Z</time>
      </trkpt>
      <trkpt lat="44.27988" lon="3.69797">
        <ele>665.33</ele>
        <time>2023-09-15T13:01:47Z</time>
      </trkpt>
      <trkpt lat="44.27989" lon="3.69823">
        <ele>666.33</ele>
        <time>2023-09-15T13:02:03Z</time>
      </trkpt>
      <trkpt lat="44.27991" lon="3.69854">
        <ele>667.33</ele>
        <time>2023-09-15T13:02:19Z</time>
      </trkpt>
      <trkpt lat="44.27993" lon="3.69879">
        <ele>667.33</ele>
        <time>2023-09-15T13:02:35Z</time>
      </trkpt>
      <trkpt lat="44.27991" lon="3.69908">
        <ele>670.33</ele>
        <time>2023-09-15T13:02:51Z</time>
      </trkpt>
      <trkpt lat="44.27988" lon="3.69936">
        <ele>669.33</ele>
        <time>2023-09-15T13:03:07Z</time>
      </trkpt>
      <trkpt lat="44.27985" lon="3.69961">
        <ele>671.33</ele>
        <time>2023-09-15T13:03:23Z</time>
      </trkpt>
      <trkpt lat="44.27984" lon="3.69988">
        <ele>670.33</ele>
        <time>2023-09-15T13:03:39Z</time>
      </trkpt>
      <trkpt lat="44.27985" lon="3.70016">
        <ele>670.33</ele>
        <time>2023-09-15T13:03:55Z</time>
      </trkpt>
      <trkpt lat="44.27987" lon="3.70041">
        <ele>667.33</ele>
        <time>2023-09-15T13:04:11Z</time>
      </trkpt>
      <trkpt lat="44.27988" lon="3.7007">
        <ele>668.33</ele>
        <time>2023-09-15T13:04:27Z</time>
      </trkpt>
      <trkpt lat="44.2799" lon="3.70102">
        <ele>670.33</ele>
        <time>2023-09-15T13:04:47Z</time>
      </trkpt>
      <trkpt lat="44.27989" lon="3.70128">
        <ele>671.33</ele>
        <time>2023-09-15T13:05:03Z</time>
      </trkpt>
      <trkpt lat="44.27982" lon="3.70155">
        <ele>672.33</ele>
        <time>2023-09-15T13:05:39Z</time>
      </trkpt>
      <trkpt lat="44.27974" lon="3.70183">
        <ele>673.33</ele>
        <time>2023-09-15T13:05:55Z</time>
      </trkpt>
      <trkpt lat="44.27967" lon="3.70209">
        <ele>674.33</ele>
        <time>2023-09-15T13:06:11Z</time>
      </trkpt>
      <trkpt lat="44.27958" lon="3.7024">
        <ele>674.33</ele>
        <time>2023-09-15T13:06:31Z</time>
      </trkpt>
      <trkpt lat="44.27948" lon="3.70263">
        <ele>673.33</ele>
        <time>2023-09-15T13:06:47Z</time>
      </trkpt>
      <trkpt lat="44.27942" lon="3.70289">
        <ele>673.33</ele>
        <time>2023-09-15T13:07:07Z</time>
      </trkpt>
      <trkpt lat="44.27933" lon="3.70315">
        <ele>675.33</ele>
        <time>2023-09-15T13:07:23Z</time>
      </trkpt>
      <trkpt lat="44.27923" lon="3.70338">
        <ele>675.33</ele>
        <time>2023-09-15T13:07:39Z</time>
      </trkpt>
      <trkpt lat="44.27913" lon="3.70365">
        <ele>677.33</ele>
        <time>2023-09-15T13:07:59Z</time>
      </trkpt>
      <trkpt lat="44.27903" lon="3.70391">
        <ele>677.33</ele>
        <time>2023-09-15T13:08:19Z</time>
      </trkpt>
      <trkpt lat="44.27886" lon="3.7038">
        <ele>683.33</ele>
        <time>2023-09-15T13:09:43Z</time>
      </trkpt>
      <trkpt lat="44.27899" lon="3.70401">
        <ele>682.33</ele>
        <time>2023-09-15T13:11:59Z</time>
      </trkpt>
      <trkpt lat="44.27891" lon="3.7043">
        <ele>680.33</ele>
        <time>2023-09-15T13:12:31Z</time>
      </trkpt>
      <trkpt lat="44.2788" lon="3.70458">
        <ele>679.33</ele>
        <time>2023-09-15T13:12:47Z</time>
      </trkpt>
      <trkpt lat="44.27879" lon="3.70486">
        <ele>681.33</ele>
        <time>2023-09-15T13:13:03Z</time>
      </trkpt>
      <trkpt lat="44.27877" lon="3.70511">
        <ele>681.33</ele>
        <time>2023-09-15T13:13:19Z</time>
      </trkpt>
      <trkpt lat="44.27874" lon="3.7054">
        <ele>680.33</ele>
        <time>2023-09-15T13:13:35Z</time>
      </trkpt>
      <trkpt lat="44.27873" lon="3.70569">
        <ele>682.33</ele>
        <time>2023-09-15T13:13:51Z</time>
      </trkpt>
      <trkpt lat="44.27871" lon="3.706">
        <ele>682.33</ele>
        <time>2023-09-15T13:14:11Z</time>
      </trkpt>
      <trkpt lat="44.27869" lon="3.70633">
        <ele>681.33</ele>
        <time>2023-09-15T13:14:31Z</time>
      </trkpt>
      <trkpt lat="44.27861" lon="3.70658">
        <ele>683.33</ele>
        <time>2023-09-15T13:14:47Z</time>
      </trkpt>
      <trkpt lat="44.27849" lon="3.70679">
        <ele>685.33</ele>
        <time>2023-09-15T13:15:03Z</time>
      </trkpt>
      <trkpt lat="44.27834" lon="3.70701">
        <ele>685.33</ele>
        <time>2023-09-15T13:15:19Z</time>
      </trkpt>
      <trkpt lat="44.27819" lon="3.70717">
        <ele>686.33</ele>
        <time>2023-09-15T13:15:35Z</time>
      </trkpt>
      <trkpt lat="44.27802" lon="3.70731">
        <ele>683.33</ele>
        <time>2023-09-15T13:15:51Z</time>
      </trkpt>
      <trkpt lat="44.27786" lon="3.70745">
        <ele>685.33</ele>
        <time>2023-09-15T13:16:07Z</time>
      </trkpt>
      <trkpt lat="44.27769" lon="3.70764">
        <ele>688.33</ele>
        <time>2023-09-15T13:16:27Z</time>
      </trkpt>
      <trkpt lat="44.2776" lon="3.70787">
        <ele>689.33</ele>
        <time>2023-09-15T13:16:43Z</time>
      </trkpt>
      <trkpt lat="44.27752" lon="3.70812">
        <ele>691.33</ele>
        <time>2023-09-15T13:16:59Z</time>
      </trkpt>
      <trkpt lat="44.2775" lon="3.70841">
        <ele>690.33</ele>
        <time>2023-09-15T13:17:15Z</time>
      </trkpt>
      <trkpt lat="44.27752" lon="3.70868">
        <ele>692.33</ele>
        <time>2023-09-15T13:17:39Z</time>
      </trkpt>
      <trkpt lat="44.27762" lon="3.70896">
        <ele>688.33</ele>
        <time>2023-09-15T13:17:55Z</time>
      </trkpt>
      <trkpt lat="44.27771" lon="3.70924">
        <ele>686.33</ele>
        <time>2023-09-15T13:18:11Z</time>
      </trkpt>
      <trkpt lat="44.27784" lon="3.70946">
        <ele>680.33</ele>
        <time>2023-09-15T13:18:27Z</time>
      </trkpt>
      <trkpt lat="44.27798" lon="3.70967">
        <ele>679.33</ele>
        <time>2023-09-15T13:18:43Z</time>
      </trkpt>
      <trkpt lat="44.27812" lon="3.70987">
        <ele>680.33</ele>
        <time>2023-09-15T13:18:59Z</time>
      </trkpt>
      <trkpt lat="44.27824" lon="3.71006">
        <ele>683.33</ele>
        <time>2023-09-15T13:19:15Z</time>
      </trkpt>
      <trkpt lat="44.27836" lon="3.71027">
        <ele>682.33</ele>
        <time>2023-09-15T13:19:35Z</time>
      </trkpt>
      <trkpt lat="44.27841" lon="3.71054">
        <ele>682.33</ele>
        <time>2023-09-15T13:19:51Z</time>
      </trkpt>
      <trkpt lat="44.27842" lon="3.71083">
        <ele>683.33</ele>
        <time>2023-09-15T13:20:07Z</time>
      </trkpt>
      <trkpt lat="44.27846" lon="3.7111">
        <ele>683.33</ele>
        <time>2023-09-15T13:20:23Z</time>
      </trkpt>
      <trkpt lat="44.27847" lon="3.71142">
        <ele>684.33</ele>
        <time>2023-09-15T13:20:39Z</time>
      </trkpt>
      <trkpt lat="44.27849" lon="3.71175">
        <ele>687.33</ele>
        <time>2023-09-15T13:20:59Z</time>
      </trkpt>
      <trkpt lat="44.27847" lon="3.71201">
        <ele>687.33</ele>
        <time>2023-09-15T13:21:15Z</time>
      </trkpt>
      <trkpt lat="44.2784" lon="3.71225">
        <ele>688.33</ele>
        <time>2023-09-15T13:21:31Z</time>
      </trkpt>
      <trkpt lat="44.2783" lon="3.71248">
        <ele>689.33</ele>
        <time>2023-09-15T13:21:47Z</time>
      </trkpt>
      <trkpt lat="44.27818" lon="3.71271">
        <ele>688.33</ele>
        <time>2023-09-15T13:22:03Z</time>
      </trkpt>
      <trkpt lat="44.27806" lon="3.71294">
        <ele>687.33</ele>
        <time>2023-09-15T13:22:19Z</time>
      </trkpt>
      <trkpt lat="44.27791" lon="3.71317">
        <ele>686.33</ele>
        <time>2023-09-15T13:22:35Z</time>
      </trkpt>
      <trkpt lat="44.27785" lon="3.71345">
        <ele>685.33</ele>
        <time>2023-09-15T13:22:51Z</time>
      </trkpt>
      <trkpt lat="44.27776" lon="3.71472">
        <ele>691.33</ele>
        <time>2023-09-15T13:23:44Z</time>
      </trkpt>
      <trkpt lat="44.27795" lon="3.71457">
        <ele>681.33</ele>
        <time>2023-09-15T13:23:57Z</time>
      </trkpt>
      <trkpt lat="44.27804" lon="3.71482">
        <ele>675.33</ele>
        <time>2023-09-15T13:24:13Z</time>
      </trkpt>
      <trkpt lat="44.27813" lon="3.71509">
        <ele>679.33</ele>
        <time>2023-09-15T13:24:29Z</time>
      </trkpt>
      <trkpt lat="44.27816" lon="3.71536">
        <ele>680.33</ele>
        <time>2023-09-15T13:24:45Z</time>
      </trkpt>
      <trkpt lat="44.27814" lon="3.71562">
        <ele>683.33</ele>
        <time>2023-09-15T13:25:05Z</time>
      </trkpt>
      <trkpt lat="44.27811" lon="3.71596">
        <ele>687.33</ele>
        <time>2023-09-15T13:25:25Z</time>
      </trkpt>
      <trkpt lat="44.27808" lon="3.71626">
        <ele>688.33</ele>
        <time>2023-09-15T13:25:41Z</time>
      </trkpt>
      <trkpt lat="44.27803" lon="3.71651">
        <ele>688.33</ele>
        <time>2023-09-15T13:25:57Z</time>
      </trkpt>
      <trkpt lat="44.27801" lon="3.71681">
        <ele>688.33</ele>
        <time>2023-09-15T13:26:13Z</time>
      </trkpt>
      <trkpt lat="44.27801" lon="3.71715">
        <ele>689.33</ele>
        <time>2023-09-15T13:26:33Z</time>
      </trkpt>
      <trkpt lat="44.27801" lon="3.71741">
        <ele>686.33</ele>
        <time>2023-09-15T13:26:49Z</time>
      </trkpt>
      <trkpt lat="44.27798" lon="3.71773">
        <ele>688.33</ele>
        <time>2023-09-15T13:27:05Z</time>
      </trkpt>
      <trkpt lat="44.27796" lon="3.71801">
        <ele>691.33</ele>
        <time>2023-09-15T13:27:21Z</time>
      </trkpt>
      <trkpt lat="44.27795" lon="3.71829">
        <ele>692.33</ele>
        <time>2023-09-15T13:27:37Z</time>
      </trkpt>
      <trkpt lat="44.27793" lon="3.71855">
        <ele>695.33</ele>
        <time>2023-09-15T13:27:53Z</time>
      </trkpt>
      <trkpt lat="44.27786" lon="3.71883">
        <ele>696.33</ele>
        <time>2023-09-15T13:28:13Z</time>
      </trkpt>
      <trkpt lat="44.27784" lon="3.71912">
        <ele>697.33</ele>
        <time>2023-09-15T13:28:29Z</time>
      </trkpt>
      <trkpt lat="44.27781" lon="3.71937">
        <ele>696.33</ele>
        <time>2023-09-15T13:28:45Z</time>
      </trkpt>
      <trkpt lat="44.27776" lon="3.71964">
        <ele>696.33</ele>
        <time>2023-09-15T13:29:01Z</time>
      </trkpt>
      <trkpt lat="44.27774" lon="3.7199">
        <ele>696.33</ele>
        <time>2023-09-15T13:29:13Z</time>
      </trkpt>
      <trkpt lat="44.27775" lon="3.72017">
        <ele>696.33</ele>
        <time>2023-09-15T13:29:29Z</time>
      </trkpt>
      <trkpt lat="44.27781" lon="3.72049">
        <ele>695.33</ele>
        <time>2023-09-15T13:29:45Z</time>
      </trkpt>
      <trkpt lat="44.27783" lon="3.72078">
        <ele>694.33</ele>
        <time>2023-09-15T13:30:01Z</time>
      </trkpt>
      <trkpt lat="44.2779" lon="3.72107">
        <ele>694.33</ele>
        <time>2023-09-15T13:30:17Z</time>
      </trkpt>
      <trkpt lat="44.27794" lon="3.72132">
        <ele>695.33</ele>
        <time>2023-09-15T13:30:33Z</time>
      </trkpt>
      <trkpt lat="44.27799" lon="3.72158">
        <ele>693.33</ele>
        <time>2023-09-15T13:30:49Z</time>
      </trkpt>
      <trkpt lat="44.278" lon="3.72191">
        <ele>694.33</ele>
        <time>2023-09-15T13:31:05Z</time>
      </trkpt>
      <trkpt lat="44.27803" lon="3.72217">
        <ele>696.33</ele>
        <time>2023-09-15T13:31:21Z</time>
      </trkpt>
      <trkpt lat="44.27804" lon="3.72245">
        <ele>696.33</ele>
        <time>2023-09-15T13:31:37Z</time>
      </trkpt>
      <trkpt lat="44.27802" lon="3.72271">
        <ele>698.33</ele>
        <time>2023-09-15T13:31:53Z</time>
      </trkpt>
      <trkpt lat="44.27796" lon="3.72297">
        <ele>697.33</ele>
        <time>2023-09-15T13:32:09Z</time>
      </trkpt>
      <trkpt lat="44.27787" lon="3.72321">
        <ele>699.33</ele>
        <time>2023-09-15T13:32:25Z</time>
      </trkpt>
      <trkpt lat="44.2778" lon="3.72344">
        <ele>704.33</ele>
        <time>2023-09-15T13:32:41Z</time>
      </trkpt>
      <trkpt lat="44.2777" lon="3.72368">
        <ele>706.33</ele>
        <time>2023-09-15T13:33:06Z</time>
      </trkpt>
      <trkpt lat="44.27754" lon="3.72388">
        <ele>706.33</ele>
        <time>2023-09-15T13:33:22Z</time>
      </trkpt>
      <trkpt lat="44.27738" lon="3.72403">
        <ele>704.33</ele>
        <time>2023-09-15T13:33:38Z</time>
      </trkpt>
      <trkpt lat="44.27719" lon="3.72419">
        <ele>706.33</ele>
        <time>2023-09-15T13:33:58Z</time>
      </trkpt>
      <trkpt lat="44.27701" lon="3.72435">
        <ele>708.33</ele>
        <time>2023-09-15T13:34:14Z</time>
      </trkpt>
      <trkpt lat="44.27684" lon="3.72452">
        <ele>703.33</ele>
        <time>2023-09-15T13:34:30Z</time>
      </trkpt>
      <trkpt lat="44.27666" lon="3.72466">
        <ele>700.33</ele>
        <time>2023-09-15T13:34:46Z</time>
      </trkpt>
      <trkpt lat="44.27647" lon="3.72484">
        <ele>697.33</ele>
        <time>2023-09-15T13:35:02Z</time>
      </trkpt>
      <trkpt lat="44.27629" lon="3.725">
        <ele>696.33</ele>
        <time>2023-09-15T13:35:18Z</time>
      </trkpt>
      <trkpt lat="44.27614" lon="3.72521">
        <ele>697.33</ele>
        <time>2023-09-15T13:35:34Z</time>
      </trkpt>
      <trkpt lat="44.27594" lon="3.72536">
        <ele>699.33</ele>
        <time>2023-09-15T13:35:50Z</time>
      </trkpt>
      <trkpt lat="44.27579" lon="3.72557">
        <ele>700.33</ele>
        <time>2023-09-15T13:36:06Z</time>
      </trkpt>
      <trkpt lat="44.27564" lon="3.72575">
        <ele>702.33</ele>
        <time>2023-09-15T13:36:22Z</time>
      </trkpt>
      <trkpt lat="44.27551" lon="3.72599">
        <ele>703.33</ele>
        <time>2023-09-15T13:36:38Z</time>
      </trkpt>
      <trkpt lat="44.27538" lon="3.72624">
        <ele>698.33</ele>
        <time>2023-09-15T13:36:54Z</time>
      </trkpt>
      <trkpt lat="44.27526" lon="3.72648">
        <ele>698.33</ele>
        <time>2023-09-15T13:37:10Z</time>
      </trkpt>
      <trkpt lat="44.27516" lon="3.72672">
        <ele>699.33</ele>
        <time>2023-09-15T13:37:26Z</time>
      </trkpt>
      <trkpt lat="44.27505" lon="3.72695">
        <ele>702.33</ele>
        <time>2023-09-15T13:37:42Z</time>
      </trkpt>
      <trkpt lat="44.27495" lon="3.72715">
        <ele>703.33</ele>
        <time>2023-09-15T13:37:54Z</time>
      </trkpt>
      <trkpt lat="44.2749" lon="3.72744">
        <ele>701.33</ele>
        <time>2023-09-15T13:38:10Z</time>
      </trkpt>
      <trkpt lat="44.27483" lon="3.72769">
        <ele>704.33</ele>
        <time>2023-09-15T13:38:26Z</time>
      </trkpt>
      <trkpt lat="44.27481" lon="3.72798">
        <ele>704.33</ele>
        <time>2023-09-15T13:38:42Z</time>
      </trkpt>
      <trkpt lat="44.27482" lon="3.7283">
        <ele>698.33</ele>
        <time>2023-09-15T13:38:58Z</time>
      </trkpt>
      <trkpt lat="44.2748" lon="3.72857">
        <ele>700.33</ele>
        <time>2023-09-15T13:39:14Z</time>
      </trkpt>
      <trkpt lat="44.27476" lon="3.72885">
        <ele>701.33</ele>
        <time>2023-09-15T13:39:30Z</time>
      </trkpt>
      <trkpt lat="44.27471" lon="3.72917">
        <ele>702.33</ele>
        <time>2023-09-15T13:39:46Z</time>
      </trkpt>
      <trkpt lat="44.27462" lon="3.72941">
        <ele>702.33</ele>
        <time>2023-09-15T13:40:02Z</time>
      </trkpt>
      <trkpt lat="44.27444" lon="3.72961">
        <ele>701.33</ele>
        <time>2023-09-15T13:40:38Z</time>
      </trkpt>
      <trkpt lat="44.27426" lon="3.72966">
        <ele>703.33</ele>
        <time>2023-09-15T13:40:54Z</time>
      </trkpt>
      <trkpt lat="44.27408" lon="3.72971">
        <ele>707.33</ele>
        <time>2023-09-15T13:41:10Z</time>
      </trkpt>
      <trkpt lat="44.27386" lon="3.72972">
        <ele>706.33</ele>
        <time>2023-09-15T13:41:30Z</time>
      </trkpt>
      <trkpt lat="44.27363" lon="3.72966">
        <ele>703.33</ele>
        <time>2023-09-15T13:41:46Z</time>
      </trkpt>
      <trkpt lat="44.27341" lon="3.72963">
        <ele>703.33</ele>
        <time>2023-09-15T13:42:02Z</time>
      </trkpt>
      <trkpt lat="44.27323" lon="3.72969">
        <ele>692.33</ele>
        <time>2023-09-15T13:44:39Z</time>
      </trkpt>
      <trkpt lat="44.27303" lon="3.7297">
        <ele>693.33</ele>
        <time>2023-09-15T13:44:55Z</time>
      </trkpt>
      <trkpt lat="44.27283" lon="3.7297">
        <ele>694.33</ele>
        <time>2023-09-15T13:45:11Z</time>
      </trkpt>
      <trkpt lat="44.27262" lon="3.72972">
        <ele>695.33</ele>
        <time>2023-09-15T13:45:27Z</time>
      </trkpt>
      <trkpt lat="44.27244" lon="3.72976">
        <ele>693.33</ele>
        <time>2023-09-15T13:45:43Z</time>
      </trkpt>
      <trkpt lat="44.27224" lon="3.72989">
        <ele>696.33</ele>
        <time>2023-09-15T13:45:59Z</time>
      </trkpt>
      <trkpt lat="44.27207" lon="3.72995">
        <ele>696.33</ele>
        <time>2023-09-15T13:46:12Z</time>
      </trkpt>
      <trkpt lat="44.27186" lon="3.73008">
        <ele>693.33</ele>
        <time>2023-09-15T13:46:29Z</time>
      </trkpt>
      <trkpt lat="44.27168" lon="3.73022">
        <ele>692.33</ele>
        <time>2023-09-15T13:46:45Z</time>
      </trkpt>
      <trkpt lat="44.27151" lon="3.73038">
        <ele>692.33</ele>
        <time>2023-09-15T13:47:01Z</time>
      </trkpt>
      <trkpt lat="44.27136" lon="3.73054">
        <ele>693.33</ele>
        <time>2023-09-15T13:47:17Z</time>
      </trkpt>
      <trkpt lat="44.27151" lon="3.7307">
        <ele>693.33</ele>
        <time>2023-09-15T13:50:21Z</time>
      </trkpt>
      <trkpt lat="44.27168" lon="3.73053">
        <ele>694.33</ele>
        <time>2023-09-15T13:50:37Z</time>
      </trkpt>
      <trkpt lat="44.27173" lon="3.73029">
        <ele>707.33</ele>
        <time>2023-09-15T13:52:57Z</time>
      </trkpt>
      <trkpt lat="44.27161" lon="3.7305">
        <ele>708.33</ele>
        <time>2023-09-15T13:55:29Z</time>
      </trkpt>
      <trkpt lat="44.2715" lon="3.73072">
        <ele>699.33</ele>
        <time>2023-09-15T13:55:45Z</time>
      </trkpt>
      <trkpt lat="44.27134" lon="3.73057">
        <ele>694.33</ele>
        <time>2023-09-15T13:56:05Z</time>
      </trkpt>
      <trkpt lat="44.2713" lon="3.73084">
        <ele>693.33</ele>
        <time>2023-09-15T14:08:03Z</time>
      </trkpt>
      <trkpt lat="44.27115" lon="3.73109">
        <ele>695.33</ele>
        <time>2023-09-15T14:08:19Z</time>
      </trkpt>
      <trkpt lat="44.27103" lon="3.73129">
        <ele>696.33</ele>
        <time>2023-09-15T14:08:35Z</time>
      </trkpt>
      <trkpt lat="44.27089" lon="3.73149">
        <ele>698.33</ele>
        <time>2023-09-15T14:08:51Z</time>
      </trkpt>
      <trkpt lat="44.27105" lon="3.7313">
        <ele>697.33</ele>
        <time>2023-09-15T14:09:39Z</time>
      </trkpt>
      <trkpt lat="44.27117" lon="3.73107">
        <ele>695.33</ele>
        <time>2023-09-15T14:09:55Z</time>
      </trkpt>
      <trkpt lat="44.27133" lon="3.7309">
        <ele>694.33</ele>
        <time>2023-09-15T14:10:39Z</time>
      </trkpt>
      <trkpt lat="44.27148" lon="3.73073">
        <ele>695.33</ele>
        <time>2023-09-15T14:10:55Z</time>
      </trkpt>
      <trkpt lat="44.27162" lon="3.73057">
        <ele>696.33</ele>
        <time>2023-09-15T14:11:11Z</time>
      </trkpt>
      <trkpt lat="44.27177" lon="3.73042">
        <ele>701.33</ele>
        <time>2023-09-15T14:11:35Z</time>
      </trkpt>
      <trkpt lat="44.27161" lon="3.73053">
        <ele>704.33</ele>
        <time>2023-09-15T14:12:35Z</time>
      </trkpt>
      <trkpt lat="44.27147" lon="3.7307">
        <ele>702.33</ele>
        <time>2023-09-15T14:12:47Z</time>
      </trkpt>
      <trkpt lat="44.27129" lon="3.7308">
        <ele>702.33</ele>
        <time>2023-09-15T14:12:59Z</time>
      </trkpt>
      <trkpt lat="44.27115" lon="3.73096">
        <ele>700.33</ele>
        <time>2023-09-15T14:13:11Z</time>
      </trkpt>
      <trkpt lat="44.27101" lon="3.73123">
        <ele>700.33</ele>
        <time>2023-09-15T14:13:27Z</time>
      </trkpt>
      <trkpt lat="44.27086" lon="3.73145">
        <ele>702.33</ele>
        <time>2023-09-15T14:13:43Z</time>
      </trkpt>
      <trkpt lat="44.27073" lon="3.73164">
        <ele>702.33</ele>
        <time>2023-09-15T14:14:11Z</time>
      </trkpt>
      <trkpt lat="44.27063" lon="3.73192">
        <ele>701.33</ele>
        <time>2023-09-15T14:14:59Z</time>
      </trkpt>
      <trkpt lat="44.27054" lon="3.73219">
        <ele>701.33</ele>
        <time>2023-09-15T14:15:15Z</time>
      </trkpt>
      <trkpt lat="44.27054" lon="3.73245">
        <ele>703.33</ele>
        <time>2023-09-15T14:15:31Z</time>
      </trkpt>
      <trkpt lat="44.27052" lon="3.73276">
        <ele>707.33</ele>
        <time>2023-09-15T14:15:47Z</time>
      </trkpt>
      <trkpt lat="44.27049" lon="3.73307">
        <ele>706.33</ele>
        <time>2023-09-15T14:16:03Z</time>
      </trkpt>
      <trkpt lat="44.27045" lon="3.73333">
        <ele>710.33</ele>
        <time>2023-09-15T14:16:19Z</time>
      </trkpt>
      <trkpt lat="44.27042" lon="3.73363">
        <ele>709.33</ele>
        <time>2023-09-15T14:16:35Z</time>
      </trkpt>
      <trkpt lat="44.27037" lon="3.73392">
        <ele>710.33</ele>
        <time>2023-09-15T14:16:55Z</time>
      </trkpt>
      <trkpt lat="44.27022" lon="3.73417">
        <ele>711.33</ele>
        <time>2023-09-15T14:17:15Z</time>
      </trkpt>
      <trkpt lat="44.27009" lon="3.7344">
        <ele>711.33</ele>
        <time>2023-09-15T14:17:31Z</time>
      </trkpt>
      <trkpt lat="44.26996" lon="3.73464">
        <ele>708.33</ele>
        <time>2023-09-15T14:17:47Z</time>
      </trkpt>
      <trkpt lat="44.26983" lon="3.73492">
        <ele>708.33</ele>
        <time>2023-09-15T14:18:03Z</time>
      </trkpt>
      <trkpt lat="44.26978" lon="3.73524">
        <ele>706.33</ele>
        <time>2023-09-15T14:18:19Z</time>
      </trkpt>
      <trkpt lat="44.26973" lon="3.73548">
        <ele>703.33</ele>
        <time>2023-09-15T14:18:32Z</time>
      </trkpt>
      <trkpt lat="44.26975" lon="3.73578">
        <ele>702.33</ele>
        <time>2023-09-15T14:18:48Z</time>
      </trkpt>
      <trkpt lat="44.26977" lon="3.73611">
        <ele>703.33</ele>
        <time>2023-09-15T14:19:04Z</time>
      </trkpt>
      <trkpt lat="44.26985" lon="3.7364">
        <ele>705.33</ele>
        <time>2023-09-15T14:19:20Z</time>
      </trkpt>
      <trkpt lat="44.26988" lon="3.73672">
        <ele>710.33</ele>
        <time>2023-09-15T14:19:40Z</time>
      </trkpt>
      <trkpt lat="44.26991" lon="3.737">
        <ele>712.33</ele>
        <time>2023-09-15T14:19:56Z</time>
      </trkpt>
      <trkpt lat="44.26983" lon="3.73725">
        <ele>713.33</ele>
        <time>2023-09-15T14:20:12Z</time>
      </trkpt>
      <trkpt lat="44.26974" lon="3.73751">
        <ele>713.33</ele>
        <time>2023-09-15T14:20:28Z</time>
      </trkpt>
      <trkpt lat="44.26959" lon="3.73775">
        <ele>714.33</ele>
        <time>2023-09-15T14:20:48Z</time>
      </trkpt>
      <trkpt lat="44.26939" lon="3.7379">
        <ele>712.33</ele>
        <time>2023-09-15T14:21:04Z</time>
      </trkpt>
      <trkpt lat="44.2692" lon="3.73797">
        <ele>715.33</ele>
        <time>2023-09-15T14:21:20Z</time>
      </trkpt>
      <trkpt lat="44.26899" lon="3.73801">
        <ele>712.33</ele>
        <time>2023-09-15T14:22:16Z</time>
      </trkpt>
      <trkpt lat="44.26881" lon="3.73798">
        <ele>713.33</ele>
        <time>2023-09-15T14:22:28Z</time>
      </trkpt>
      <trkpt lat="44.26859" lon="3.73794">
        <ele>716.33</ele>
        <time>2023-09-15T14:22:44Z</time>
      </trkpt>
      <trkpt lat="44.2684" lon="3.73789">
        <ele>715.33</ele>
        <time>2023-09-15T14:23:00Z</time>
      </trkpt>
      <trkpt lat="44.26822" lon="3.73779">
        <ele>715.33</ele>
        <time>2023-09-15T14:23:16Z</time>
      </trkpt>
      <trkpt lat="44.26802" lon="3.73764">
        <ele>714.33</ele>
        <time>2023-09-15T14:23:32Z</time>
      </trkpt>
      <trkpt lat="44.26782" lon="3.73752">
        <ele>711.33</ele>
        <time>2023-09-15T14:23:48Z</time>
      </trkpt>
      <trkpt lat="44.26762" lon="3.73741">
        <ele>715.33</ele>
        <time>2023-09-15T14:24:04Z</time>
      </trkpt>
      <trkpt lat="44.2674" lon="3.73739">
        <ele>714.33</ele>
        <time>2023-09-15T14:24:20Z</time>
      </trkpt>
      <trkpt lat="44.26721" lon="3.73744">
        <ele>715.33</ele>
        <time>2023-09-15T14:24:40Z</time>
      </trkpt>
      <trkpt lat="44.26701" lon="3.73751">
        <ele>714.33</ele>
        <time>2023-09-15T14:24:56Z</time>
      </trkpt>
      <trkpt lat="44.26683" lon="3.73767">
        <ele>713.33</ele>
        <time>2023-09-15T14:25:12Z</time>
      </trkpt>
      <trkpt lat="44.26663" lon="3.73776">
        <ele>715.33</ele>
        <time>2023-09-15T14:25:28Z</time>
      </trkpt>
      <trkpt lat="44.26645" lon="3.73791">
        <ele>716.33</ele>
        <time>2023-09-15T14:25:44Z</time>
      </trkpt>
      <trkpt lat="44.26624" lon="3.73799">
        <ele>715.33</ele>
        <time>2023-09-15T14:26:00Z</time>
      </trkpt>
      <trkpt lat="44.26639" lon="3.73813">
        <ele>715.33</ele>
        <time>2023-09-15T14:27:08Z</time>
      </trkpt>
      <trkpt lat="44.26619" lon="3.73821">
        <ele>717.33</ele>
        <time>2023-09-15T14:27:28Z</time>
      </trkpt>
      <trkpt lat="44.26602" lon="3.73832">
        <ele>717.33</ele>
        <time>2023-09-15T14:27:44Z</time>
      </trkpt>
      <trkpt lat="44.26585" lon="3.73847">
        <ele>719.33</ele>
        <time>2023-09-15T14:28:01Z</time>
      </trkpt>
      <trkpt lat="44.26576" lon="3.73871">
        <ele>721.33</ele>
        <time>2023-09-15T14:28:17Z</time>
      </trkpt>
      <trkpt lat="44.26587" lon="3.73896">
        <ele>723.33</ele>
        <time>2023-09-15T14:28:33Z</time>
      </trkpt>
      <trkpt lat="44.2659" lon="3.73924">
        <ele>724.33</ele>
        <time>2023-09-15T14:28:49Z</time>
      </trkpt>
      <trkpt lat="44.26598" lon="3.73951">
        <ele>724.33</ele>
        <time>2023-09-15T14:29:05Z</time>
      </trkpt>
      <trkpt lat="44.26603" lon="3.73976">
        <ele>725.33</ele>
        <time>2023-09-15T14:29:21Z</time>
      </trkpt>
      <trkpt lat="44.26608" lon="3.74005">
        <ele>725.33</ele>
        <time>2023-09-15T14:29:37Z</time>
      </trkpt>
      <trkpt lat="44.26616" lon="3.74035">
        <ele>727.33</ele>
        <time>2023-09-15T14:29:57Z</time>
      </trkpt>
      <trkpt lat="44.26624" lon="3.74059">
        <ele>729.33</ele>
        <time>2023-09-15T14:30:13Z</time>
      </trkpt>
      <trkpt lat="44.26634" lon="3.74085">
        <ele>730.33</ele>
        <time>2023-09-15T14:30:30Z</time>
      </trkpt>
      <trkpt lat="44.26647" lon="3.74111">
        <ele>729.33</ele>
        <time>2023-09-15T14:30:50Z</time>
      </trkpt>
      <trkpt lat="44.26658" lon="3.74133">
        <ele>730.33</ele>
        <time>2023-09-15T14:31:06Z</time>
      </trkpt>
      <trkpt lat="44.26655" lon="3.74108">
        <ele>735.33</ele>
        <time>2023-09-15T14:31:38Z</time>
      </trkpt>
      <trkpt lat="44.26648" lon="3.7408">
        <ele>739.33</ele>
        <time>2023-09-15T14:31:58Z</time>
      </trkpt>
      <trkpt lat="44.2664" lon="3.74054">
        <ele>739.33</ele>
        <time>2023-09-15T14:32:14Z</time>
      </trkpt>
      <trkpt lat="44.26633" lon="3.74029">
        <ele>743.33</ele>
        <time>2023-09-15T14:32:30Z</time>
      </trkpt>
      <trkpt lat="44.26632" lon="3.74001">
        <ele>744.33</ele>
        <time>2023-09-15T14:32:50Z</time>
      </trkpt>
      <trkpt lat="44.2663" lon="3.73971">
        <ele>743.33</ele>
        <time>2023-09-15T14:33:10Z</time>
      </trkpt>
      <trkpt lat="44.2663" lon="3.7394">
        <ele>744.33</ele>
        <time>2023-09-15T14:33:30Z</time>
      </trkpt>
      <trkpt lat="44.26628" lon="3.73912">
        <ele>746.33</ele>
        <time>2023-09-15T14:33:50Z</time>
      </trkpt>
      <trkpt lat="44.26645" lon="3.73895">
        <ele>749.33</ele>
        <time>2023-09-15T14:34:10Z</time>
      </trkpt>
      <trkpt lat="44.26667" lon="3.73883">
        <ele>749.33</ele>
        <time>2023-09-15T14:34:50Z</time>
      </trkpt>
      <trkpt lat="44.26682" lon="3.73869">
        <ele>749.33</ele>
        <time>2023-09-15T14:35:06Z</time>
      </trkpt>
      <trkpt lat="44.26706" lon="3.73868">
        <ele>753.33</ele>
        <time>2023-09-15T14:35:26Z</time>
      </trkpt>
      <trkpt lat="44.26722" lon="3.73884">
        <ele>758.33</ele>
        <time>2023-09-15T14:35:42Z</time>
      </trkpt>
      <trkpt lat="44.26738" lon="3.73902">
        <ele>761.33</ele>
        <time>2023-09-15T14:36:02Z</time>
      </trkpt>
      <trkpt lat="44.26755" lon="3.73918">
        <ele>765.33</ele>
        <time>2023-09-15T14:36:18Z</time>
      </trkpt>
      <trkpt lat="44.26773" lon="3.73929">
        <ele>767.33</ele>
        <time>2023-09-15T14:36:35Z</time>
      </trkpt>
      <trkpt lat="44.26789" lon="3.73943">
        <ele>767.33</ele>
        <time>2023-09-15T14:36:51Z</time>
      </trkpt>
      <trkpt lat="44.26797" lon="3.73968">
        <ele>771.33</ele>
        <time>2023-09-15T14:37:07Z</time>
      </trkpt>
      <trkpt lat="44.26806" lon="3.73996">
        <ele>774.33</ele>
        <time>2023-09-15T14:37:23Z</time>
      </trkpt>
      <trkpt lat="44.26817" lon="3.74017">
        <ele>776.33</ele>
        <time>2023-09-15T14:37:43Z</time>
      </trkpt>
      <trkpt lat="44.26828" lon="3.74039">
        <ele>776.33</ele>
        <time>2023-09-15T14:38:07Z</time>
      </trkpt>
      <trkpt lat="44.26826" lon="3.74064">
        <ele>781.33</ele>
        <time>2023-09-15T14:39:28Z</time>
      </trkpt>
      <trkpt lat="44.26842" lon="3.74082">
        <ele>782.33</ele>
        <time>2023-09-15T14:40:00Z</time>
      </trkpt>
      <trkpt lat="44.26853" lon="3.74107">
        <ele>787.33</ele>
        <time>2023-09-15T14:40:24Z</time>
      </trkpt>
      <trkpt lat="44.26868" lon="3.74123">
        <ele>790.33</ele>
        <time>2023-09-15T14:40:44Z</time>
      </trkpt>
      <trkpt lat="44.26888" lon="3.74131">
        <ele>793.33</ele>
        <time>2023-09-15T14:41:04Z</time>
      </trkpt>
      <trkpt lat="44.26908" lon="3.74133">
        <ele>792.33</ele>
        <time>2023-09-15T14:41:24Z</time>
      </trkpt>
      <trkpt lat="44.26904" lon="3.74162">
        <ele>798.33</ele>
        <time>2023-09-15T14:42:24Z</time>
      </trkpt>
      <trkpt lat="44.26909" lon="3.74188">
        <ele>800.33</ele>
        <time>2023-09-15T14:42:44Z</time>
      </trkpt>
      <trkpt lat="44.26921" lon="3.74168">
        <ele>801.33</ele>
        <time>2023-09-15T14:43:08Z</time>
      </trkpt>
      <trkpt lat="44.26942" lon="3.74172">
        <ele>805.33</ele>
        <time>2023-09-15T14:43:32Z</time>
      </trkpt>
      <trkpt lat="44.2696" lon="3.74182">
        <ele>810.33</ele>
        <time>2023-09-15T14:43:56Z</time>
      </trkpt>
      <trkpt lat="44.2698" lon="3.74191">
        <ele>815.33</ele>
        <time>2023-09-15T14:44:24Z</time>
      </trkpt>
      <trkpt lat="44.26999" lon="3.74198">
        <ele>820.33</ele>
        <time>2023-09-15T14:44:56Z</time>
      </trkpt>
      <trkpt lat="44.27016" lon="3.74208">
        <ele>828.33</ele>
        <time>2023-09-15T14:45:28Z</time>
      </trkpt>
      <trkpt lat="44.27034" lon="3.74198">
        <ele>830.33</ele>
        <time>2023-09-15T14:45:56Z</time>
      </trkpt>
      <trkpt lat="44.27051" lon="3.74213">
        <ele>838.33</ele>
        <time>2023-09-15T14:46:48Z</time>
      </trkpt>
      <trkpt lat="44.27048" lon="3.74239">
        <ele>841.33</ele>
        <time>2023-09-15T14:47:24Z</time>
      </trkpt>
      <trkpt lat="44.27043" lon="3.74267">
        <ele>839.33</ele>
        <time>2023-09-15T14:47:44Z</time>
      </trkpt>
      <trkpt lat="44.27043" lon="3.74293">
        <ele>834.33</ele>
        <time>2023-09-15T14:48:08Z</time>
      </trkpt>
      <trkpt lat="44.27046" lon="3.74319">
        <ele>832.33</ele>
        <time>2023-09-15T14:48:56Z</time>
      </trkpt>
      <trkpt lat="44.27054" lon="3.74345">
        <ele>831.33</ele>
        <time>2023-09-15T14:49:12Z</time>
      </trkpt>
      <trkpt lat="44.27056" lon="3.74373">
        <ele>830.33</ele>
        <time>2023-09-15T14:49:28Z</time>
      </trkpt>
      <trkpt lat="44.27058" lon="3.74401">
        <ele>830.33</ele>
        <time>2023-09-15T14:49:44Z</time>
      </trkpt>
      <trkpt lat="44.27062" lon="3.74429">
        <ele>830.33</ele>
        <time>2023-09-15T14:50:00Z</time>
      </trkpt>
      <trkpt lat="44.27061" lon="3.744">
        <ele>826.33</ele>
        <time>2023-09-15T14:50:52Z</time>
      </trkpt>
      <trkpt lat="44.27058" lon="3.74372">
        <ele>828.33</ele>
        <time>2023-09-15T14:51:08Z</time>
      </trkpt>
      <trkpt lat="44.27054" lon="3.74344">
        <ele>826.33</ele>
        <time>2023-09-15T14:51:24Z</time>
      </trkpt>
      <trkpt lat="44.27044" lon="3.74319">
        <ele>827.33</ele>
        <time>2023-09-15T14:51:40Z</time>
      </trkpt>
      <trkpt lat="44.27048" lon="3.7429">
        <ele>828.33</ele>
        <time>2023-09-15T14:52:00Z</time>
      </trkpt>
      <trkpt lat="44.27067" lon="3.74299">
        <ele>835.33</ele>
        <time>2023-09-15T14:52:36Z</time>
      </trkpt>
      <trkpt lat="44.27049" lon="3.74305">
        <ele>845.33</ele>
        <time>2023-09-15T15:42:00Z</time>
      </trkpt>
      <trkpt lat="44.27068" lon="3.74308">
        <ele>847.33</ele>
        <time>2023-09-15T15:54:38Z</time>
      </trkpt>
      <trkpt lat="44.2705" lon="3.74307">
        <ele>891.33</ele>
        <time>2023-09-15T15:57:44Z</time>
      </trkpt>
    </trkseg>
  </trk>
</gpx>